<?xml version="1.0" encoding="UTF-8" standalone="no" ?>
<gpx xmlns="http://www.topografix.com/GPX/1/1" xmlns:xsi="http://www.w3.org/2001/XMLSchema-instance" xsi:schemaLocation="http://www.topografix.com/GPX/1/1 http://www.topografix.com/GPX/1/1/gpx.xsd" version="1.1" creator="VisuGPX - https://www.visugpx.com">
  <metadata>
    <name>Balade de Noël.</name>
    <desc><![CDATA[Manque 1,5 km au départ, soit un peu plus de 14 km au final.]]></desc>
  </metadata>
  <trk>
    <name><![CDATA[25 déc. 2018 2:44:41 PM]]></name>
    <trkseg>
      <trkpt lat="48.13312" lon="0.39044">
        <ele>85.6</ele>
        <time>2018-12-25T13:59:58.000Z</time>
      </trkpt>
      <trkpt lat="48.13311" lon="0.39031">
        <ele>84.8</ele>
        <time>2018-12-25T14:00:16.000Z</time>
      </trkpt>
      <trkpt lat="48.1331" lon="0.39017">
        <ele>83.5</ele>
        <time>2018-12-25T14:00:23.000Z</time>
      </trkpt>
      <trkpt lat="48.13307" lon="0.39002">
        <ele>82.4</ele>
        <time>2018-12-25T14:00:30.000Z</time>
      </trkpt>
      <trkpt lat="48.13306" lon="0.38987">
        <ele>81.1</ele>
        <time>2018-12-25T14:00:38.000Z</time>
      </trkpt>
      <trkpt lat="48.13303" lon="0.38974">
        <ele>79.9</ele>
        <time>2018-12-25T14:00:46.000Z</time>
      </trkpt>
      <trkpt lat="48.13301" lon="0.38959">
        <ele>80.8</ele>
        <time>2018-12-25T14:00:53.000Z</time>
      </trkpt>
      <trkpt lat="48.133" lon="0.38944">
        <ele>81.4</ele>
        <time>2018-12-25T14:01:00.000Z</time>
      </trkpt>
      <trkpt lat="48.13298" lon="0.38931">
        <ele>81.7</ele>
        <time>2018-12-25T14:01:06.000Z</time>
      </trkpt>
      <trkpt lat="48.13296" lon="0.38916">
        <ele>81.9</ele>
        <time>2018-12-25T14:01:13.000Z</time>
      </trkpt>
      <trkpt lat="48.13293" lon="0.38902">
        <ele>82.8</ele>
        <time>2018-12-25T14:01:20.000Z</time>
      </trkpt>
      <trkpt lat="48.13292" lon="0.38888">
        <ele>83.5</ele>
        <time>2018-12-25T14:01:27.000Z</time>
      </trkpt>
      <trkpt lat="48.1329" lon="0.38873">
        <ele>83.6</ele>
        <time>2018-12-25T14:01:34.000Z</time>
      </trkpt>
      <trkpt lat="48.13289" lon="0.38857">
        <ele>84</ele>
        <time>2018-12-25T14:01:41.000Z</time>
      </trkpt>
      <trkpt lat="48.13286" lon="0.38842">
        <ele>84.6</ele>
        <time>2018-12-25T14:01:48.000Z</time>
      </trkpt>
      <trkpt lat="48.13283" lon="0.38828">
        <ele>84.8</ele>
        <time>2018-12-25T14:01:55.000Z</time>
      </trkpt>
      <trkpt lat="48.13279" lon="0.38816">
        <ele>86.1</ele>
        <time>2018-12-25T14:02:02.000Z</time>
      </trkpt>
      <trkpt lat="48.13276" lon="0.38803">
        <ele>86.2</ele>
        <time>2018-12-25T14:02:08.000Z</time>
      </trkpt>
      <trkpt lat="48.13273" lon="0.38789">
        <ele>86.2</ele>
        <time>2018-12-25T14:02:15.000Z</time>
      </trkpt>
      <trkpt lat="48.13274" lon="0.38774">
        <ele>86.9</ele>
        <time>2018-12-25T14:02:22.000Z</time>
      </trkpt>
      <trkpt lat="48.13281" lon="0.38765">
        <ele>88.1</ele>
        <time>2018-12-25T14:02:29.000Z</time>
      </trkpt>
      <trkpt lat="48.13289" lon="0.38758">
        <ele>89.5</ele>
        <time>2018-12-25T14:02:35.000Z</time>
      </trkpt>
      <trkpt lat="48.13295" lon="0.38746">
        <ele>91.1</ele>
        <time>2018-12-25T14:02:42.000Z</time>
      </trkpt>
      <trkpt lat="48.13298" lon="0.38731">
        <ele>91.8</ele>
        <time>2018-12-25T14:02:49.000Z</time>
      </trkpt>
      <trkpt lat="48.13302" lon="0.38718">
        <ele>92.5</ele>
        <time>2018-12-25T14:02:56.000Z</time>
      </trkpt>
      <trkpt lat="48.13305" lon="0.38704">
        <ele>94.9</ele>
        <time>2018-12-25T14:03:06.000Z</time>
      </trkpt>
      <trkpt lat="48.13309" lon="0.38692">
        <ele>96.7</ele>
        <time>2018-12-25T14:03:13.000Z</time>
      </trkpt>
      <trkpt lat="48.13315" lon="0.38679">
        <ele>98.6</ele>
        <time>2018-12-25T14:03:20.000Z</time>
      </trkpt>
      <trkpt lat="48.13321" lon="0.3867">
        <ele>100.4</ele>
        <time>2018-12-25T14:03:26.000Z</time>
      </trkpt>
      <trkpt lat="48.13328" lon="0.38658">
        <ele>102.2</ele>
        <time>2018-12-25T14:03:34.000Z</time>
      </trkpt>
      <trkpt lat="48.13333" lon="0.38646">
        <ele>104</ele>
        <time>2018-12-25T14:03:41.000Z</time>
      </trkpt>
      <trkpt lat="48.13338" lon="0.38634">
        <ele>106</ele>
        <time>2018-12-25T14:03:47.000Z</time>
      </trkpt>
      <trkpt lat="48.13343" lon="0.38621">
        <ele>107.8</ele>
        <time>2018-12-25T14:03:53.000Z</time>
      </trkpt>
      <trkpt lat="48.13348" lon="0.38609">
        <ele>108.9</ele>
        <time>2018-12-25T14:03:58.000Z</time>
      </trkpt>
      <trkpt lat="48.13354" lon="0.38596">
        <ele>109.1</ele>
        <time>2018-12-25T14:04:04.000Z</time>
      </trkpt>
      <trkpt lat="48.13359" lon="0.38583">
        <ele>110</ele>
        <time>2018-12-25T14:04:10.000Z</time>
      </trkpt>
      <trkpt lat="48.13363" lon="0.38571">
        <ele>111.4</ele>
        <time>2018-12-25T14:04:16.000Z</time>
      </trkpt>
      <trkpt lat="48.13366" lon="0.38556">
        <ele>111.6</ele>
        <time>2018-12-25T14:04:23.000Z</time>
      </trkpt>
      <trkpt lat="48.13371" lon="0.38544">
        <ele>109.6</ele>
        <time>2018-12-25T14:04:29.000Z</time>
      </trkpt>
      <trkpt lat="48.13375" lon="0.3853">
        <ele>104.7</ele>
        <time>2018-12-25T14:04:35.000Z</time>
      </trkpt>
      <trkpt lat="48.13378" lon="0.38517">
        <ele>101.7</ele>
        <time>2018-12-25T14:04:41.000Z</time>
      </trkpt>
      <trkpt lat="48.13381" lon="0.38503">
        <ele>100</ele>
        <time>2018-12-25T14:04:47.000Z</time>
      </trkpt>
      <trkpt lat="48.13384" lon="0.3849">
        <ele>98.6</ele>
        <time>2018-12-25T14:04:53.000Z</time>
      </trkpt>
      <trkpt lat="48.13386" lon="0.38477">
        <ele>97.8</ele>
        <time>2018-12-25T14:04:59.000Z</time>
      </trkpt>
      <trkpt lat="48.13388" lon="0.38463">
        <ele>95.9</ele>
        <time>2018-12-25T14:05:05.000Z</time>
      </trkpt>
      <trkpt lat="48.13391" lon="0.38449">
        <ele>94.2</ele>
        <time>2018-12-25T14:05:11.000Z</time>
      </trkpt>
      <trkpt lat="48.13393" lon="0.38435">
        <ele>92.5</ele>
        <time>2018-12-25T14:05:17.000Z</time>
      </trkpt>
      <trkpt lat="48.13395" lon="0.38421">
        <ele>90.8</ele>
        <time>2018-12-25T14:05:23.000Z</time>
      </trkpt>
      <trkpt lat="48.13396" lon="0.38407">
        <ele>88.8</ele>
        <time>2018-12-25T14:05:29.000Z</time>
      </trkpt>
      <trkpt lat="48.13397" lon="0.38393">
        <ele>87.9</ele>
        <time>2018-12-25T14:05:35.000Z</time>
      </trkpt>
      <trkpt lat="48.13397" lon="0.3838">
        <ele>87.5</ele>
        <time>2018-12-25T14:05:41.000Z</time>
      </trkpt>
      <trkpt lat="48.13398" lon="0.38365">
        <ele>86.6</ele>
        <time>2018-12-25T14:05:48.000Z</time>
      </trkpt>
      <trkpt lat="48.134" lon="0.38352">
        <ele>86.8</ele>
        <time>2018-12-25T14:05:57.000Z</time>
      </trkpt>
      <trkpt lat="48.13401" lon="0.38338">
        <ele>88.6</ele>
        <time>2018-12-25T14:06:06.000Z</time>
      </trkpt>
      <trkpt lat="48.13403" lon="0.38324">
        <ele>90.2</ele>
        <time>2018-12-25T14:06:15.000Z</time>
      </trkpt>
      <trkpt lat="48.13406" lon="0.38311">
        <ele>93.1</ele>
        <time>2018-12-25T14:06:22.000Z</time>
      </trkpt>
      <trkpt lat="48.1341" lon="0.38299">
        <ele>97.3</ele>
        <time>2018-12-25T14:06:29.000Z</time>
      </trkpt>
      <trkpt lat="48.13414" lon="0.38286">
        <ele>102.4</ele>
        <time>2018-12-25T14:06:37.000Z</time>
      </trkpt>
      <trkpt lat="48.13417" lon="0.38272">
        <ele>106.1</ele>
        <time>2018-12-25T14:06:44.000Z</time>
      </trkpt>
      <trkpt lat="48.13419" lon="0.38259">
        <ele>109.3</ele>
        <time>2018-12-25T14:06:52.000Z</time>
      </trkpt>
      <trkpt lat="48.1342" lon="0.38243">
        <ele>107.7</ele>
        <time>2018-12-25T14:07:01.000Z</time>
      </trkpt>
      <trkpt lat="48.13423" lon="0.3823">
        <ele>109.8</ele>
        <time>2018-12-25T14:07:08.000Z</time>
      </trkpt>
      <trkpt lat="48.13427" lon="0.38217">
        <ele>112.4</ele>
        <time>2018-12-25T14:07:16.000Z</time>
      </trkpt>
      <trkpt lat="48.1343" lon="0.38204">
        <ele>113.1</ele>
        <time>2018-12-25T14:07:26.000Z</time>
      </trkpt>
      <trkpt lat="48.13434" lon="0.38191">
        <ele>115.1</ele>
        <time>2018-12-25T14:07:32.000Z</time>
      </trkpt>
      <trkpt lat="48.13438" lon="0.38178">
        <ele>114.6</ele>
        <time>2018-12-25T14:07:38.000Z</time>
      </trkpt>
      <trkpt lat="48.13443" lon="0.38167">
        <ele>112.4</ele>
        <time>2018-12-25T14:07:45.000Z</time>
      </trkpt>
      <trkpt lat="48.13448" lon="0.38156">
        <ele>113.5</ele>
        <time>2018-12-25T14:07:52.000Z</time>
      </trkpt>
      <trkpt lat="48.13453" lon="0.38144">
        <ele>116.6</ele>
        <time>2018-12-25T14:07:58.000Z</time>
      </trkpt>
      <trkpt lat="48.13458" lon="0.38132">
        <ele>119.5</ele>
        <time>2018-12-25T14:08:05.000Z</time>
      </trkpt>
      <trkpt lat="48.13463" lon="0.38121">
        <ele>123.4</ele>
        <time>2018-12-25T14:08:12.000Z</time>
      </trkpt>
      <trkpt lat="48.13469" lon="0.3811">
        <ele>128.2</ele>
        <time>2018-12-25T14:08:21.000Z</time>
      </trkpt>
      <trkpt lat="48.13474" lon="0.38097">
        <ele>132.7</ele>
        <time>2018-12-25T14:08:30.000Z</time>
      </trkpt>
      <trkpt lat="48.13479" lon="0.38084">
        <ele>138.6</ele>
        <time>2018-12-25T14:08:38.000Z</time>
      </trkpt>
      <trkpt lat="48.13486" lon="0.38073">
        <ele>145.4</ele>
        <time>2018-12-25T14:08:45.000Z</time>
      </trkpt>
      <trkpt lat="48.13492" lon="0.38062">
        <ele>148.3</ele>
        <time>2018-12-25T14:08:51.000Z</time>
      </trkpt>
      <trkpt lat="48.13497" lon="0.38051">
        <ele>152</ele>
        <time>2018-12-25T14:08:57.000Z</time>
      </trkpt>
      <trkpt lat="48.13503" lon="0.3804">
        <ele>154.6</ele>
        <time>2018-12-25T14:09:03.000Z</time>
      </trkpt>
      <trkpt lat="48.13506" lon="0.38027">
        <ele>156.3</ele>
        <time>2018-12-25T14:09:10.000Z</time>
      </trkpt>
      <trkpt lat="48.13508" lon="0.38013">
        <ele>151.9</ele>
        <time>2018-12-25T14:09:17.000Z</time>
      </trkpt>
      <trkpt lat="48.13508" lon="0.37997">
        <ele>150.1</ele>
        <time>2018-12-25T14:09:24.000Z</time>
      </trkpt>
      <trkpt lat="48.13509" lon="0.37983">
        <ele>152</ele>
        <time>2018-12-25T14:09:31.000Z</time>
      </trkpt>
      <trkpt lat="48.13509" lon="0.37968">
        <ele>149.6</ele>
        <time>2018-12-25T14:09:39.000Z</time>
      </trkpt>
      <trkpt lat="48.13509" lon="0.37954">
        <ele>139.9</ele>
        <time>2018-12-25T14:09:47.000Z</time>
      </trkpt>
      <trkpt lat="48.13509" lon="0.3794">
        <ele>133.8</ele>
        <time>2018-12-25T14:09:53.000Z</time>
      </trkpt>
      <trkpt lat="48.13506" lon="0.37926">
        <ele>128.4</ele>
        <time>2018-12-25T14:10:00.000Z</time>
      </trkpt>
      <trkpt lat="48.13504" lon="0.37913">
        <ele>124.3</ele>
        <time>2018-12-25T14:10:08.000Z</time>
      </trkpt>
      <trkpt lat="48.13503" lon="0.37899">
        <ele>121.6</ele>
        <time>2018-12-25T14:10:14.000Z</time>
      </trkpt>
      <trkpt lat="48.13504" lon="0.37883">
        <ele>118</ele>
        <time>2018-12-25T14:10:22.000Z</time>
      </trkpt>
      <trkpt lat="48.13504" lon="0.37867">
        <ele>117.3</ele>
        <time>2018-12-25T14:10:28.000Z</time>
      </trkpt>
      <trkpt lat="48.13504" lon="0.37852">
        <ele>117.1</ele>
        <time>2018-12-25T14:10:34.000Z</time>
      </trkpt>
      <trkpt lat="48.13505" lon="0.37836">
        <ele>117.3</ele>
        <time>2018-12-25T14:10:41.000Z</time>
      </trkpt>
      <trkpt lat="48.13502" lon="0.37823">
        <ele>115.9</ele>
        <time>2018-12-25T14:10:48.000Z</time>
      </trkpt>
      <trkpt lat="48.13503" lon="0.37809">
        <ele>119.7</ele>
        <time>2018-12-25T14:10:55.000Z</time>
      </trkpt>
      <trkpt lat="48.13504" lon="0.37794">
        <ele>125.4</ele>
        <time>2018-12-25T14:11:01.000Z</time>
      </trkpt>
      <trkpt lat="48.13504" lon="0.37779">
        <ele>127.1</ele>
        <time>2018-12-25T14:11:06.000Z</time>
      </trkpt>
      <trkpt lat="48.13505" lon="0.37765">
        <ele>133.4</ele>
        <time>2018-12-25T14:11:11.000Z</time>
      </trkpt>
      <trkpt lat="48.13506" lon="0.37751">
        <ele>136.2</ele>
        <time>2018-12-25T14:11:16.000Z</time>
      </trkpt>
      <trkpt lat="48.13508" lon="0.37737">
        <ele>129.6</ele>
        <time>2018-12-25T14:11:22.000Z</time>
      </trkpt>
      <trkpt lat="48.13509" lon="0.37721">
        <ele>122.7</ele>
        <time>2018-12-25T14:11:28.000Z</time>
      </trkpt>
      <trkpt lat="48.13512" lon="0.37706">
        <ele>114.8</ele>
        <time>2018-12-25T14:11:34.000Z</time>
      </trkpt>
      <trkpt lat="48.13514" lon="0.3769">
        <ele>108.2</ele>
        <time>2018-12-25T14:11:40.000Z</time>
      </trkpt>
      <trkpt lat="48.13515" lon="0.37675">
        <ele>104.4</ele>
        <time>2018-12-25T14:11:46.000Z</time>
      </trkpt>
      <trkpt lat="48.13516" lon="0.37659">
        <ele>97.7</ele>
        <time>2018-12-25T14:11:52.000Z</time>
      </trkpt>
      <trkpt lat="48.13516" lon="0.37645">
        <ele>95.4</ele>
        <time>2018-12-25T14:11:58.000Z</time>
      </trkpt>
      <trkpt lat="48.13517" lon="0.3763">
        <ele>94.5</ele>
        <time>2018-12-25T14:12:04.000Z</time>
      </trkpt>
      <trkpt lat="48.13518" lon="0.37615">
        <ele>92.9</ele>
        <time>2018-12-25T14:12:10.000Z</time>
      </trkpt>
      <trkpt lat="48.13519" lon="0.37601">
        <ele>91.4</ele>
        <time>2018-12-25T14:12:16.000Z</time>
      </trkpt>
      <trkpt lat="48.13523" lon="0.37588">
        <ele>90.9</ele>
        <time>2018-12-25T14:12:22.000Z</time>
      </trkpt>
      <trkpt lat="48.13527" lon="0.37574">
        <ele>90.7</ele>
        <time>2018-12-25T14:12:29.000Z</time>
      </trkpt>
      <trkpt lat="48.13531" lon="0.37561">
        <ele>90.2</ele>
        <time>2018-12-25T14:12:35.000Z</time>
      </trkpt>
      <trkpt lat="48.13536" lon="0.37548">
        <ele>90.1</ele>
        <time>2018-12-25T14:12:42.000Z</time>
      </trkpt>
      <trkpt lat="48.13541" lon="0.37535">
        <ele>90.9</ele>
        <time>2018-12-25T14:12:50.000Z</time>
      </trkpt>
      <trkpt lat="48.13545" lon="0.37521">
        <ele>92.6</ele>
        <time>2018-12-25T14:12:57.000Z</time>
      </trkpt>
      <trkpt lat="48.13548" lon="0.37507">
        <ele>92.7</ele>
        <time>2018-12-25T14:13:04.000Z</time>
      </trkpt>
      <trkpt lat="48.13552" lon="0.37493">
        <ele>93.2</ele>
        <time>2018-12-25T14:13:11.000Z</time>
      </trkpt>
      <trkpt lat="48.13556" lon="0.37479">
        <ele>93.5</ele>
        <time>2018-12-25T14:13:18.000Z</time>
      </trkpt>
      <trkpt lat="48.13559" lon="0.37467">
        <ele>92.9</ele>
        <time>2018-12-25T14:13:26.000Z</time>
      </trkpt>
      <trkpt lat="48.13562" lon="0.37452">
        <ele>94.2</ele>
        <time>2018-12-25T14:13:50.000Z</time>
      </trkpt>
      <trkpt lat="48.13565" lon="0.37439">
        <ele>93.3</ele>
        <time>2018-12-25T14:13:56.000Z</time>
      </trkpt>
      <trkpt lat="48.13568" lon="0.37425">
        <ele>92.4</ele>
        <time>2018-12-25T14:14:02.000Z</time>
      </trkpt>
      <trkpt lat="48.1357" lon="0.37411">
        <ele>91.8</ele>
        <time>2018-12-25T14:14:09.000Z</time>
      </trkpt>
      <trkpt lat="48.13572" lon="0.37396">
        <ele>91</ele>
        <time>2018-12-25T14:14:16.000Z</time>
      </trkpt>
      <trkpt lat="48.13575" lon="0.37383">
        <ele>90.8</ele>
        <time>2018-12-25T14:14:22.000Z</time>
      </trkpt>
      <trkpt lat="48.13578" lon="0.37368">
        <ele>90.2</ele>
        <time>2018-12-25T14:14:29.000Z</time>
      </trkpt>
      <trkpt lat="48.1358" lon="0.37355">
        <ele>90.5</ele>
        <time>2018-12-25T14:14:35.000Z</time>
      </trkpt>
      <trkpt lat="48.13582" lon="0.37341">
        <ele>91.8</ele>
        <time>2018-12-25T14:14:42.000Z</time>
      </trkpt>
      <trkpt lat="48.13585" lon="0.37326">
        <ele>92.8</ele>
        <time>2018-12-25T14:14:49.000Z</time>
      </trkpt>
      <trkpt lat="48.13586" lon="0.37313">
        <ele>92</ele>
        <time>2018-12-25T14:14:55.000Z</time>
      </trkpt>
      <trkpt lat="48.13588" lon="0.37299">
        <ele>90.8</ele>
        <time>2018-12-25T14:15:01.000Z</time>
      </trkpt>
      <trkpt lat="48.13591" lon="0.37286">
        <ele>90.3</ele>
        <time>2018-12-25T14:15:07.000Z</time>
      </trkpt>
      <trkpt lat="48.13593" lon="0.37271">
        <ele>88.1</ele>
        <time>2018-12-25T14:15:14.000Z</time>
      </trkpt>
      <trkpt lat="48.13596" lon="0.37256">
        <ele>87.5</ele>
        <time>2018-12-25T14:15:21.000Z</time>
      </trkpt>
      <trkpt lat="48.13599" lon="0.37242">
        <ele>87.9</ele>
        <time>2018-12-25T14:15:28.000Z</time>
      </trkpt>
      <trkpt lat="48.13604" lon="0.37228">
        <ele>87.9</ele>
        <time>2018-12-25T14:15:35.000Z</time>
      </trkpt>
      <trkpt lat="48.13607" lon="0.37214">
        <ele>87.7</ele>
        <time>2018-12-25T14:15:42.000Z</time>
      </trkpt>
      <trkpt lat="48.13609" lon="0.372">
        <ele>88</ele>
        <time>2018-12-25T14:15:51.000Z</time>
      </trkpt>
      <trkpt lat="48.13609" lon="0.37186">
        <ele>89.9</ele>
        <time>2018-12-25T14:15:59.000Z</time>
      </trkpt>
      <trkpt lat="48.13611" lon="0.37171">
        <ele>93.7</ele>
        <time>2018-12-25T14:16:09.000Z</time>
      </trkpt>
      <trkpt lat="48.13611" lon="0.37157">
        <ele>101.3</ele>
        <time>2018-12-25T14:16:17.000Z</time>
      </trkpt>
      <trkpt lat="48.13613" lon="0.37143">
        <ele>111.4</ele>
        <time>2018-12-25T14:16:26.000Z</time>
      </trkpt>
      <trkpt lat="48.13614" lon="0.37129">
        <ele>119.2</ele>
        <time>2018-12-25T14:16:34.000Z</time>
      </trkpt>
      <trkpt lat="48.13616" lon="0.37113">
        <ele>129.2</ele>
        <time>2018-12-25T14:16:42.000Z</time>
      </trkpt>
      <trkpt lat="48.13617" lon="0.371">
        <ele>136.7</ele>
        <time>2018-12-25T14:16:50.000Z</time>
      </trkpt>
      <trkpt lat="48.13618" lon="0.37086">
        <ele>142.3</ele>
        <time>2018-12-25T14:16:56.000Z</time>
      </trkpt>
      <trkpt lat="48.13618" lon="0.37071">
        <ele>149.4</ele>
        <time>2018-12-25T14:17:03.000Z</time>
      </trkpt>
      <trkpt lat="48.13619" lon="0.37056">
        <ele>155.5</ele>
        <time>2018-12-25T14:17:10.000Z</time>
      </trkpt>
      <trkpt lat="48.13622" lon="0.37043">
        <ele>162.3</ele>
        <time>2018-12-25T14:17:16.000Z</time>
      </trkpt>
      <trkpt lat="48.13624" lon="0.3703">
        <ele>164.2</ele>
        <time>2018-12-25T14:17:24.000Z</time>
      </trkpt>
      <trkpt lat="48.13626" lon="0.37016">
        <ele>164.2</ele>
        <time>2018-12-25T14:17:30.000Z</time>
      </trkpt>
      <trkpt lat="48.13627" lon="0.37002">
        <ele>159.7</ele>
        <time>2018-12-25T14:17:36.000Z</time>
      </trkpt>
      <trkpt lat="48.13628" lon="0.36988">
        <ele>158.8</ele>
        <time>2018-12-25T14:17:42.000Z</time>
      </trkpt>
      <trkpt lat="48.1363" lon="0.36975">
        <ele>159.9</ele>
        <time>2018-12-25T14:17:48.000Z</time>
      </trkpt>
      <trkpt lat="48.13632" lon="0.36962">
        <ele>160.5</ele>
        <time>2018-12-25T14:17:54.000Z</time>
      </trkpt>
      <trkpt lat="48.13636" lon="0.36947">
        <ele>158.6</ele>
        <time>2018-12-25T14:18:01.000Z</time>
      </trkpt>
      <trkpt lat="48.13637" lon="0.36932">
        <ele>157.1</ele>
        <time>2018-12-25T14:18:09.000Z</time>
      </trkpt>
      <trkpt lat="48.13638" lon="0.36919">
        <ele>156.1</ele>
        <time>2018-12-25T14:18:16.000Z</time>
      </trkpt>
      <trkpt lat="48.13639" lon="0.36903">
        <ele>158.7</ele>
        <time>2018-12-25T14:18:22.000Z</time>
      </trkpt>
      <trkpt lat="48.13638" lon="0.36888">
        <ele>161</ele>
        <time>2018-12-25T14:18:30.000Z</time>
      </trkpt>
      <trkpt lat="48.1364" lon="0.36873">
        <ele>156.4</ele>
        <time>2018-12-25T14:18:36.000Z</time>
      </trkpt>
      <trkpt lat="48.13641" lon="0.36859">
        <ele>147.9</ele>
        <time>2018-12-25T14:18:42.000Z</time>
      </trkpt>
      <trkpt lat="48.13643" lon="0.36843">
        <ele>145.2</ele>
        <time>2018-12-25T14:18:48.000Z</time>
      </trkpt>
      <trkpt lat="48.13643" lon="0.36829">
        <ele>143.6</ele>
        <time>2018-12-25T14:18:54.000Z</time>
      </trkpt>
      <trkpt lat="48.13645" lon="0.36816">
        <ele>139.8</ele>
        <time>2018-12-25T14:19:02.000Z</time>
      </trkpt>
      <trkpt lat="48.13644" lon="0.36802">
        <ele>133.4</ele>
        <time>2018-12-25T14:19:09.000Z</time>
      </trkpt>
      <trkpt lat="48.13644" lon="0.36788">
        <ele>126.4</ele>
        <time>2018-12-25T14:19:15.000Z</time>
      </trkpt>
      <trkpt lat="48.13646" lon="0.36772">
        <ele>118.6</ele>
        <time>2018-12-25T14:19:20.000Z</time>
      </trkpt>
      <trkpt lat="48.13648" lon="0.36758">
        <ele>114.6</ele>
        <time>2018-12-25T14:19:26.000Z</time>
      </trkpt>
      <trkpt lat="48.13649" lon="0.36745">
        <ele>112.3</ele>
        <time>2018-12-25T14:19:31.000Z</time>
      </trkpt>
      <trkpt lat="48.13651" lon="0.3673">
        <ele>108.7</ele>
        <time>2018-12-25T14:19:36.000Z</time>
      </trkpt>
      <trkpt lat="48.13651" lon="0.36716">
        <ele>105.3</ele>
        <time>2018-12-25T14:19:41.000Z</time>
      </trkpt>
      <trkpt lat="48.13652" lon="0.36702">
        <ele>103.6</ele>
        <time>2018-12-25T14:19:46.000Z</time>
      </trkpt>
      <trkpt lat="48.13653" lon="0.36688">
        <ele>100.9</ele>
        <time>2018-12-25T14:19:51.000Z</time>
      </trkpt>
      <trkpt lat="48.13654" lon="0.36674">
        <ele>98.7</ele>
        <time>2018-12-25T14:19:56.000Z</time>
      </trkpt>
      <trkpt lat="48.13657" lon="0.3666">
        <ele>98.7</ele>
        <time>2018-12-25T14:20:02.000Z</time>
      </trkpt>
      <trkpt lat="48.1366" lon="0.36646">
        <ele>97.3</ele>
        <time>2018-12-25T14:20:08.000Z</time>
      </trkpt>
      <trkpt lat="48.13664" lon="0.36632">
        <ele>97.1</ele>
        <time>2018-12-25T14:20:14.000Z</time>
      </trkpt>
      <trkpt lat="48.13668" lon="0.36618">
        <ele>96.8</ele>
        <time>2018-12-25T14:20:20.000Z</time>
      </trkpt>
      <trkpt lat="48.13673" lon="0.36606">
        <ele>95.5</ele>
        <time>2018-12-25T14:20:26.000Z</time>
      </trkpt>
      <trkpt lat="48.13676" lon="0.36593">
        <ele>94.7</ele>
        <time>2018-12-25T14:20:32.000Z</time>
      </trkpt>
      <trkpt lat="48.13681" lon="0.3658">
        <ele>93.4</ele>
        <time>2018-12-25T14:20:38.000Z</time>
      </trkpt>
      <trkpt lat="48.13686" lon="0.36566">
        <ele>92.7</ele>
        <time>2018-12-25T14:20:44.000Z</time>
      </trkpt>
      <trkpt lat="48.13691" lon="0.36553">
        <ele>95</ele>
        <time>2018-12-25T14:20:51.000Z</time>
      </trkpt>
      <trkpt lat="48.13695" lon="0.3654">
        <ele>96.7</ele>
        <time>2018-12-25T14:20:58.000Z</time>
      </trkpt>
      <trkpt lat="48.13701" lon="0.36528">
        <ele>96.3</ele>
        <time>2018-12-25T14:21:04.000Z</time>
      </trkpt>
      <trkpt lat="48.13705" lon="0.36516">
        <ele>96</ele>
        <time>2018-12-25T14:21:10.000Z</time>
      </trkpt>
      <trkpt lat="48.1371" lon="0.36504">
        <ele>98.6</ele>
        <time>2018-12-25T14:21:18.000Z</time>
      </trkpt>
      <trkpt lat="48.13716" lon="0.36493">
        <ele>99.9</ele>
        <time>2018-12-25T14:21:25.000Z</time>
      </trkpt>
      <trkpt lat="48.13721" lon="0.36481">
        <ele>101.3</ele>
        <time>2018-12-25T14:21:32.000Z</time>
      </trkpt>
      <trkpt lat="48.13726" lon="0.36469">
        <ele>101.5</ele>
        <time>2018-12-25T14:21:39.000Z</time>
      </trkpt>
      <trkpt lat="48.1373" lon="0.36455">
        <ele>101.4</ele>
        <time>2018-12-25T14:21:46.000Z</time>
      </trkpt>
      <trkpt lat="48.13735" lon="0.36443">
        <ele>102.7</ele>
        <time>2018-12-25T14:21:52.000Z</time>
      </trkpt>
      <trkpt lat="48.13739" lon="0.36431">
        <ele>101.9</ele>
        <time>2018-12-25T14:21:58.000Z</time>
      </trkpt>
      <trkpt lat="48.13744" lon="0.36418">
        <ele>101.1</ele>
        <time>2018-12-25T14:22:03.000Z</time>
      </trkpt>
      <trkpt lat="48.13749" lon="0.36406">
        <ele>98.5</ele>
        <time>2018-12-25T14:22:08.000Z</time>
      </trkpt>
      <trkpt lat="48.13754" lon="0.36394">
        <ele>97.8</ele>
        <time>2018-12-25T14:22:14.000Z</time>
      </trkpt>
      <trkpt lat="48.13759" lon="0.36383">
        <ele>96.6</ele>
        <time>2018-12-25T14:22:20.000Z</time>
      </trkpt>
      <trkpt lat="48.13768" lon="0.36375">
        <ele>97.9</ele>
        <time>2018-12-25T14:22:26.000Z</time>
      </trkpt>
      <trkpt lat="48.13777" lon="0.36377">
        <ele>96.8</ele>
        <time>2018-12-25T14:22:32.000Z</time>
      </trkpt>
      <trkpt lat="48.13785" lon="0.36382">
        <ele>96.8</ele>
        <time>2018-12-25T14:22:39.000Z</time>
      </trkpt>
      <trkpt lat="48.13794" lon="0.36388">
        <ele>98.2</ele>
        <time>2018-12-25T14:22:46.000Z</time>
      </trkpt>
      <trkpt lat="48.13802" lon="0.36395">
        <ele>99.4</ele>
        <time>2018-12-25T14:22:54.000Z</time>
      </trkpt>
      <trkpt lat="48.13812" lon="0.36403">
        <ele>99.5</ele>
        <time>2018-12-25T14:23:01.000Z</time>
      </trkpt>
      <trkpt lat="48.1382" lon="0.36411">
        <ele>99.2</ele>
        <time>2018-12-25T14:23:07.000Z</time>
      </trkpt>
      <trkpt lat="48.13827" lon="0.3642">
        <ele>98.6</ele>
        <time>2018-12-25T14:23:14.000Z</time>
      </trkpt>
      <trkpt lat="48.13835" lon="0.36428">
        <ele>98</ele>
        <time>2018-12-25T14:23:21.000Z</time>
      </trkpt>
      <trkpt lat="48.13844" lon="0.36437">
        <ele>97.8</ele>
        <time>2018-12-25T14:23:28.000Z</time>
      </trkpt>
      <trkpt lat="48.13852" lon="0.36445">
        <ele>97.4</ele>
        <time>2018-12-25T14:23:35.000Z</time>
      </trkpt>
      <trkpt lat="48.1386" lon="0.36451">
        <ele>97.3</ele>
        <time>2018-12-25T14:23:41.000Z</time>
      </trkpt>
      <trkpt lat="48.13869" lon="0.36458">
        <ele>97.2</ele>
        <time>2018-12-25T14:23:48.000Z</time>
      </trkpt>
      <trkpt lat="48.13877" lon="0.36465">
        <ele>96.7</ele>
        <time>2018-12-25T14:23:54.000Z</time>
      </trkpt>
      <trkpt lat="48.13886" lon="0.36472">
        <ele>96.4</ele>
        <time>2018-12-25T14:24:01.000Z</time>
      </trkpt>
      <trkpt lat="48.13894" lon="0.36479">
        <ele>96.9</ele>
        <time>2018-12-25T14:24:08.000Z</time>
      </trkpt>
      <trkpt lat="48.13902" lon="0.36485">
        <ele>98</ele>
        <time>2018-12-25T14:24:15.000Z</time>
      </trkpt>
      <trkpt lat="48.1391" lon="0.3649">
        <ele>100.5</ele>
        <time>2018-12-25T14:24:22.000Z</time>
      </trkpt>
      <trkpt lat="48.13918" lon="0.36497">
        <ele>102.7</ele>
        <time>2018-12-25T14:24:29.000Z</time>
      </trkpt>
      <trkpt lat="48.13926" lon="0.36505">
        <ele>102.3</ele>
        <time>2018-12-25T14:24:36.000Z</time>
      </trkpt>
      <trkpt lat="48.13934" lon="0.36514">
        <ele>102.4</ele>
        <time>2018-12-25T14:24:44.000Z</time>
      </trkpt>
      <trkpt lat="48.13942" lon="0.36522">
        <ele>102.7</ele>
        <time>2018-12-25T14:24:51.000Z</time>
      </trkpt>
      <trkpt lat="48.1395" lon="0.36529">
        <ele>103.9</ele>
        <time>2018-12-25T14:24:58.000Z</time>
      </trkpt>
      <trkpt lat="48.13959" lon="0.36537">
        <ele>104.8</ele>
        <time>2018-12-25T14:25:05.000Z</time>
      </trkpt>
      <trkpt lat="48.13968" lon="0.36544">
        <ele>105.4</ele>
        <time>2018-12-25T14:25:12.000Z</time>
      </trkpt>
      <trkpt lat="48.13976" lon="0.36551">
        <ele>105.2</ele>
        <time>2018-12-25T14:25:19.000Z</time>
      </trkpt>
      <trkpt lat="48.13985" lon="0.36557">
        <ele>105.2</ele>
        <time>2018-12-25T14:25:26.000Z</time>
      </trkpt>
      <trkpt lat="48.13992" lon="0.36564">
        <ele>105.1</ele>
        <time>2018-12-25T14:25:32.000Z</time>
      </trkpt>
      <trkpt lat="48.14" lon="0.3657">
        <ele>106.3</ele>
        <time>2018-12-25T14:25:39.000Z</time>
      </trkpt>
      <trkpt lat="48.14009" lon="0.36578">
        <ele>107.8</ele>
        <time>2018-12-25T14:25:46.000Z</time>
      </trkpt>
      <trkpt lat="48.14017" lon="0.36584">
        <ele>107.6</ele>
        <time>2018-12-25T14:25:52.000Z</time>
      </trkpt>
      <trkpt lat="48.14026" lon="0.36591">
        <ele>107.9</ele>
        <time>2018-12-25T14:25:59.000Z</time>
      </trkpt>
      <trkpt lat="48.14037" lon="0.36595">
        <ele>107.1</ele>
        <time>2018-12-25T14:26:07.000Z</time>
      </trkpt>
      <trkpt lat="48.14045" lon="0.366">
        <ele>105.4</ele>
        <time>2018-12-25T14:26:13.000Z</time>
      </trkpt>
      <trkpt lat="48.14054" lon="0.36606">
        <ele>105.2</ele>
        <time>2018-12-25T14:26:20.000Z</time>
      </trkpt>
      <trkpt lat="48.14063" lon="0.36611">
        <ele>104.2</ele>
        <time>2018-12-25T14:26:27.000Z</time>
      </trkpt>
      <trkpt lat="48.14072" lon="0.36617">
        <ele>103.2</ele>
        <time>2018-12-25T14:26:33.000Z</time>
      </trkpt>
      <trkpt lat="48.1408" lon="0.36623">
        <ele>101.2</ele>
        <time>2018-12-25T14:26:39.000Z</time>
      </trkpt>
      <trkpt lat="48.14089" lon="0.36629">
        <ele>100.8</ele>
        <time>2018-12-25T14:26:46.000Z</time>
      </trkpt>
      <trkpt lat="48.14098" lon="0.36635">
        <ele>100.2</ele>
        <time>2018-12-25T14:26:53.000Z</time>
      </trkpt>
      <trkpt lat="48.14108" lon="0.36641">
        <ele>99.7</ele>
        <time>2018-12-25T14:27:00.000Z</time>
      </trkpt>
      <trkpt lat="48.14115" lon="0.36648">
        <ele>99.4</ele>
        <time>2018-12-25T14:27:07.000Z</time>
      </trkpt>
      <trkpt lat="48.14124" lon="0.36655">
        <ele>99.6</ele>
        <time>2018-12-25T14:27:14.000Z</time>
      </trkpt>
      <trkpt lat="48.14133" lon="0.36662">
        <ele>101.3</ele>
        <time>2018-12-25T14:27:21.000Z</time>
      </trkpt>
      <trkpt lat="48.14142" lon="0.36667">
        <ele>103</ele>
        <time>2018-12-25T14:27:28.000Z</time>
      </trkpt>
      <trkpt lat="48.14151" lon="0.36672">
        <ele>104.4</ele>
        <time>2018-12-25T14:27:35.000Z</time>
      </trkpt>
      <trkpt lat="48.14159" lon="0.3668">
        <ele>106.5</ele>
        <time>2018-12-25T14:27:42.000Z</time>
      </trkpt>
      <trkpt lat="48.14167" lon="0.36686">
        <ele>108.5</ele>
        <time>2018-12-25T14:27:49.000Z</time>
      </trkpt>
      <trkpt lat="48.14177" lon="0.36691">
        <ele>107.3</ele>
        <time>2018-12-25T14:27:56.000Z</time>
      </trkpt>
      <trkpt lat="48.14185" lon="0.36696">
        <ele>108.9</ele>
        <time>2018-12-25T14:28:03.000Z</time>
      </trkpt>
      <trkpt lat="48.14194" lon="0.36701">
        <ele>107.7</ele>
        <time>2018-12-25T14:28:09.000Z</time>
      </trkpt>
      <trkpt lat="48.14204" lon="0.36706">
        <ele>107.3</ele>
        <time>2018-12-25T14:28:16.000Z</time>
      </trkpt>
      <trkpt lat="48.14213" lon="0.3671">
        <ele>107.3</ele>
        <time>2018-12-25T14:28:23.000Z</time>
      </trkpt>
      <trkpt lat="48.14222" lon="0.36711">
        <ele>109.6</ele>
        <time>2018-12-25T14:28:30.000Z</time>
      </trkpt>
      <trkpt lat="48.14232" lon="0.36709">
        <ele>110.8</ele>
        <time>2018-12-25T14:28:36.000Z</time>
      </trkpt>
      <trkpt lat="48.14241" lon="0.36708">
        <ele>110.3</ele>
        <time>2018-12-25T14:28:42.000Z</time>
      </trkpt>
      <trkpt lat="48.1425" lon="0.36709">
        <ele>109.3</ele>
        <time>2018-12-25T14:28:48.000Z</time>
      </trkpt>
      <trkpt lat="48.14259" lon="0.36709">
        <ele>108.6</ele>
        <time>2018-12-25T14:28:55.000Z</time>
      </trkpt>
      <trkpt lat="48.14267" lon="0.36701">
        <ele>103.6</ele>
        <time>2018-12-25T14:29:03.000Z</time>
      </trkpt>
      <trkpt lat="48.14273" lon="0.3669">
        <ele>101</ele>
        <time>2018-12-25T14:29:10.000Z</time>
      </trkpt>
      <trkpt lat="48.14278" lon="0.36678">
        <ele>101.6</ele>
        <time>2018-12-25T14:29:17.000Z</time>
      </trkpt>
      <trkpt lat="48.14283" lon="0.36665">
        <ele>102.2</ele>
        <time>2018-12-25T14:29:24.000Z</time>
      </trkpt>
      <trkpt lat="48.14288" lon="0.36653">
        <ele>104</ele>
        <time>2018-12-25T14:29:31.000Z</time>
      </trkpt>
      <trkpt lat="48.14294" lon="0.36641">
        <ele>105.6</ele>
        <time>2018-12-25T14:29:38.000Z</time>
      </trkpt>
      <trkpt lat="48.143" lon="0.36629">
        <ele>103.3</ele>
        <time>2018-12-25T14:29:45.000Z</time>
      </trkpt>
      <trkpt lat="48.14306" lon="0.36618">
        <ele>102.1</ele>
        <time>2018-12-25T14:29:52.000Z</time>
      </trkpt>
      <trkpt lat="48.14315" lon="0.36613">
        <ele>104.4</ele>
        <time>2018-12-25T14:30:18.000Z</time>
      </trkpt>
      <trkpt lat="48.14324" lon="0.36624">
        <ele>101.9</ele>
        <time>2018-12-25T14:30:27.000Z</time>
      </trkpt>
      <trkpt lat="48.14332" lon="0.36633">
        <ele>99.7</ele>
        <time>2018-12-25T14:30:34.000Z</time>
      </trkpt>
      <trkpt lat="48.1434" lon="0.36642">
        <ele>97.8</ele>
        <time>2018-12-25T14:30:42.000Z</time>
      </trkpt>
      <trkpt lat="48.14348" lon="0.3665">
        <ele>96.2</ele>
        <time>2018-12-25T14:30:50.000Z</time>
      </trkpt>
      <trkpt lat="48.14355" lon="0.36659">
        <ele>94.9</ele>
        <time>2018-12-25T14:30:58.000Z</time>
      </trkpt>
      <trkpt lat="48.14362" lon="0.36668">
        <ele>93.3</ele>
        <time>2018-12-25T14:31:07.000Z</time>
      </trkpt>
      <trkpt lat="48.14369" lon="0.36677">
        <ele>91.9</ele>
        <time>2018-12-25T14:31:16.000Z</time>
      </trkpt>
      <trkpt lat="48.1438" lon="0.36674">
        <ele>91.4</ele>
        <time>2018-12-25T14:31:23.000Z</time>
      </trkpt>
      <trkpt lat="48.14389" lon="0.36668">
        <ele>90.3</ele>
        <time>2018-12-25T14:31:29.000Z</time>
      </trkpt>
      <trkpt lat="48.14396" lon="0.36654">
        <ele>91.2</ele>
        <time>2018-12-25T14:31:50.000Z</time>
      </trkpt>
      <trkpt lat="48.14401" lon="0.36641">
        <ele>89.7</ele>
        <time>2018-12-25T14:32:01.000Z</time>
      </trkpt>
      <trkpt lat="48.14404" lon="0.36628">
        <ele>83.4</ele>
        <time>2018-12-25T14:32:12.000Z</time>
      </trkpt>
      <trkpt lat="48.14409" lon="0.36617">
        <ele>90.9</ele>
        <time>2018-12-25T14:32:18.000Z</time>
      </trkpt>
      <trkpt lat="48.14417" lon="0.36606">
        <ele>91.9</ele>
        <time>2018-12-25T14:32:25.000Z</time>
      </trkpt>
      <trkpt lat="48.14426" lon="0.36603">
        <ele>93</ele>
        <time>2018-12-25T14:32:34.000Z</time>
      </trkpt>
      <trkpt lat="48.14435" lon="0.3661">
        <ele>93.3</ele>
        <time>2018-12-25T14:32:45.000Z</time>
      </trkpt>
      <trkpt lat="48.14441" lon="0.36619">
        <ele>93.6</ele>
        <time>2018-12-25T14:32:53.000Z</time>
      </trkpt>
      <trkpt lat="48.14449" lon="0.36627">
        <ele>87.8</ele>
        <time>2018-12-25T14:33:02.000Z</time>
      </trkpt>
      <trkpt lat="48.14452" lon="0.3664">
        <ele>84.3</ele>
        <time>2018-12-25T14:33:10.000Z</time>
      </trkpt>
      <trkpt lat="48.14458" lon="0.36653">
        <ele>80.2</ele>
        <time>2018-12-25T14:33:16.000Z</time>
      </trkpt>
      <trkpt lat="48.14465" lon="0.36662">
        <ele>81.4</ele>
        <time>2018-12-25T14:33:20.000Z</time>
      </trkpt>
      <trkpt lat="48.14472" lon="0.36673">
        <ele>83.6</ele>
        <time>2018-12-25T14:33:26.000Z</time>
      </trkpt>
      <trkpt lat="48.14479" lon="0.36684">
        <ele>85.5</ele>
        <time>2018-12-25T14:33:33.000Z</time>
      </trkpt>
      <trkpt lat="48.14488" lon="0.3669">
        <ele>84.6</ele>
        <time>2018-12-25T14:33:40.000Z</time>
      </trkpt>
      <trkpt lat="48.14496" lon="0.36697">
        <ele>84.9</ele>
        <time>2018-12-25T14:33:47.000Z</time>
      </trkpt>
      <trkpt lat="48.14505" lon="0.36698">
        <ele>86.8</ele>
        <time>2018-12-25T14:33:56.000Z</time>
      </trkpt>
      <trkpt lat="48.14514" lon="0.36689">
        <ele>94.9</ele>
        <time>2018-12-25T14:34:09.000Z</time>
      </trkpt>
      <trkpt lat="48.14523" lon="0.36691">
        <ele>99.7</ele>
        <time>2018-12-25T14:34:17.000Z</time>
      </trkpt>
      <trkpt lat="48.14533" lon="0.36697">
        <ele>102.3</ele>
        <time>2018-12-25T14:34:25.000Z</time>
      </trkpt>
      <trkpt lat="48.14541" lon="0.36703">
        <ele>103</ele>
        <time>2018-12-25T14:34:32.000Z</time>
      </trkpt>
      <trkpt lat="48.14549" lon="0.3671">
        <ele>105.4</ele>
        <time>2018-12-25T14:34:40.000Z</time>
      </trkpt>
      <trkpt lat="48.14558" lon="0.36717">
        <ele>107.2</ele>
        <time>2018-12-25T14:34:47.000Z</time>
      </trkpt>
      <trkpt lat="48.14567" lon="0.36724">
        <ele>108.3</ele>
        <time>2018-12-25T14:34:54.000Z</time>
      </trkpt>
      <trkpt lat="48.14574" lon="0.36735">
        <ele>107.7</ele>
        <time>2018-12-25T14:35:01.000Z</time>
      </trkpt>
      <trkpt lat="48.14579" lon="0.36747">
        <ele>109.7</ele>
        <time>2018-12-25T14:35:08.000Z</time>
      </trkpt>
      <trkpt lat="48.14585" lon="0.36757">
        <ele>113.4</ele>
        <time>2018-12-25T14:35:34.000Z</time>
      </trkpt>
      <trkpt lat="48.14593" lon="0.36764">
        <ele>116.3</ele>
        <time>2018-12-25T14:35:42.000Z</time>
      </trkpt>
      <trkpt lat="48.14602" lon="0.36771">
        <ele>119.4</ele>
        <time>2018-12-25T14:35:50.000Z</time>
      </trkpt>
      <trkpt lat="48.1461" lon="0.36779">
        <ele>120</ele>
        <time>2018-12-25T14:35:57.000Z</time>
      </trkpt>
      <trkpt lat="48.14618" lon="0.36787">
        <ele>119</ele>
        <time>2018-12-25T14:36:03.000Z</time>
      </trkpt>
      <trkpt lat="48.14626" lon="0.36794">
        <ele>120.1</ele>
        <time>2018-12-25T14:36:11.000Z</time>
      </trkpt>
      <trkpt lat="48.14634" lon="0.36801">
        <ele>120.2</ele>
        <time>2018-12-25T14:36:18.000Z</time>
      </trkpt>
      <trkpt lat="48.14642" lon="0.3681">
        <ele>119.4</ele>
        <time>2018-12-25T14:36:26.000Z</time>
      </trkpt>
      <trkpt lat="48.14651" lon="0.36818">
        <ele>118.8</ele>
        <time>2018-12-25T14:36:33.000Z</time>
      </trkpt>
      <trkpt lat="48.14659" lon="0.36825">
        <ele>117.1</ele>
        <time>2018-12-25T14:36:39.000Z</time>
      </trkpt>
      <trkpt lat="48.14669" lon="0.36826">
        <ele>124.8</ele>
        <time>2018-12-25T14:36:48.000Z</time>
      </trkpt>
      <trkpt lat="48.14677" lon="0.36832">
        <ele>124.9</ele>
        <time>2018-12-25T14:36:54.000Z</time>
      </trkpt>
      <trkpt lat="48.14685" lon="0.36838">
        <ele>131.6</ele>
        <time>2018-12-25T14:37:03.000Z</time>
      </trkpt>
      <trkpt lat="48.14695" lon="0.36845">
        <ele>137.3</ele>
        <time>2018-12-25T14:37:13.000Z</time>
      </trkpt>
      <trkpt lat="48.14702" lon="0.36855">
        <ele>136.4</ele>
        <time>2018-12-25T14:37:20.000Z</time>
      </trkpt>
      <trkpt lat="48.1471" lon="0.36861">
        <ele>134.7</ele>
        <time>2018-12-25T14:37:26.000Z</time>
      </trkpt>
      <trkpt lat="48.14718" lon="0.36869">
        <ele>135.8</ele>
        <time>2018-12-25T14:37:33.000Z</time>
      </trkpt>
      <trkpt lat="48.14727" lon="0.36876">
        <ele>137.6</ele>
        <time>2018-12-25T14:37:40.000Z</time>
      </trkpt>
      <trkpt lat="48.14736" lon="0.36885">
        <ele>138.3</ele>
        <time>2018-12-25T14:37:46.000Z</time>
      </trkpt>
      <trkpt lat="48.14743" lon="0.36896">
        <ele>137</ele>
        <time>2018-12-25T14:37:52.000Z</time>
      </trkpt>
      <trkpt lat="48.14751" lon="0.36905">
        <ele>135.3</ele>
        <time>2018-12-25T14:37:58.000Z</time>
      </trkpt>
      <trkpt lat="48.14758" lon="0.36915">
        <ele>126.5</ele>
        <time>2018-12-25T14:38:02.000Z</time>
      </trkpt>
      <trkpt lat="48.14766" lon="0.36923">
        <ele>119.5</ele>
        <time>2018-12-25T14:38:08.000Z</time>
      </trkpt>
      <trkpt lat="48.14776" lon="0.36927">
        <ele>122.8</ele>
        <time>2018-12-25T14:38:17.000Z</time>
      </trkpt>
      <trkpt lat="48.14785" lon="0.36925">
        <ele>136.1</ele>
        <time>2018-12-25T14:38:26.000Z</time>
      </trkpt>
      <trkpt lat="48.14793" lon="0.36918">
        <ele>137.5</ele>
        <time>2018-12-25T14:38:33.000Z</time>
      </trkpt>
      <trkpt lat="48.14801" lon="0.3691">
        <ele>135.9</ele>
        <time>2018-12-25T14:38:41.000Z</time>
      </trkpt>
      <trkpt lat="48.14811" lon="0.36905">
        <ele>131</ele>
        <time>2018-12-25T14:38:48.000Z</time>
      </trkpt>
      <trkpt lat="48.14819" lon="0.369">
        <ele>128.1</ele>
        <time>2018-12-25T14:38:54.000Z</time>
      </trkpt>
      <trkpt lat="48.14829" lon="0.36897">
        <ele>124.3</ele>
        <time>2018-12-25T14:39:00.000Z</time>
      </trkpt>
      <trkpt lat="48.14837" lon="0.36901">
        <ele>116.3</ele>
        <time>2018-12-25T14:39:08.000Z</time>
      </trkpt>
      <trkpt lat="48.14844" lon="0.36911">
        <ele>113.2</ele>
        <time>2018-12-25T14:39:15.000Z</time>
      </trkpt>
      <trkpt lat="48.14851" lon="0.36924">
        <ele>106</ele>
        <time>2018-12-25T14:39:21.000Z</time>
      </trkpt>
      <trkpt lat="48.14858" lon="0.36932">
        <ele>103.5</ele>
        <time>2018-12-25T14:39:27.000Z</time>
      </trkpt>
      <trkpt lat="48.14866" lon="0.36941">
        <ele>105</ele>
        <time>2018-12-25T14:39:35.000Z</time>
      </trkpt>
      <trkpt lat="48.14875" lon="0.36947">
        <ele>109.3</ele>
        <time>2018-12-25T14:39:44.000Z</time>
      </trkpt>
      <trkpt lat="48.14882" lon="0.36956">
        <ele>112.7</ele>
        <time>2018-12-25T14:39:51.000Z</time>
      </trkpt>
      <trkpt lat="48.1489" lon="0.36965">
        <ele>113</ele>
        <time>2018-12-25T14:39:59.000Z</time>
      </trkpt>
      <trkpt lat="48.14898" lon="0.36974">
        <ele>113.4</ele>
        <time>2018-12-25T14:40:07.000Z</time>
      </trkpt>
      <trkpt lat="48.14906" lon="0.36982">
        <ele>113.4</ele>
        <time>2018-12-25T14:40:14.000Z</time>
      </trkpt>
      <trkpt lat="48.14914" lon="0.36991">
        <ele>111.9</ele>
        <time>2018-12-25T14:40:21.000Z</time>
      </trkpt>
      <trkpt lat="48.14919" lon="0.37003">
        <ele>112.2</ele>
        <time>2018-12-25T14:40:28.000Z</time>
      </trkpt>
      <trkpt lat="48.14923" lon="0.37016">
        <ele>110.3</ele>
        <time>2018-12-25T14:40:35.000Z</time>
      </trkpt>
      <trkpt lat="48.14926" lon="0.3703">
        <ele>109.2</ele>
        <time>2018-12-25T14:40:41.000Z</time>
      </trkpt>
      <trkpt lat="48.14927" lon="0.37044">
        <ele>107.3</ele>
        <time>2018-12-25T14:40:49.000Z</time>
      </trkpt>
      <trkpt lat="48.14924" lon="0.3706">
        <ele>105.1</ele>
        <time>2018-12-25T14:40:56.000Z</time>
      </trkpt>
      <trkpt lat="48.14922" lon="0.37073">
        <ele>105.1</ele>
        <time>2018-12-25T14:41:03.000Z</time>
      </trkpt>
      <trkpt lat="48.14921" lon="0.37088">
        <ele>106.5</ele>
        <time>2018-12-25T14:41:12.000Z</time>
      </trkpt>
      <trkpt lat="48.1493" lon="0.37093">
        <ele>111.5</ele>
        <time>2018-12-25T14:41:21.000Z</time>
      </trkpt>
      <trkpt lat="48.14939" lon="0.37097">
        <ele>113.6</ele>
        <time>2018-12-25T14:41:29.000Z</time>
      </trkpt>
      <trkpt lat="48.14949" lon="0.371">
        <ele>115.9</ele>
        <time>2018-12-25T14:41:38.000Z</time>
      </trkpt>
      <trkpt lat="48.14959" lon="0.37105">
        <ele>118.5</ele>
        <time>2018-12-25T14:41:46.000Z</time>
      </trkpt>
      <trkpt lat="48.14968" lon="0.37111">
        <ele>116</ele>
        <time>2018-12-25T14:41:53.000Z</time>
      </trkpt>
      <trkpt lat="48.14977" lon="0.37116">
        <ele>114.9</ele>
        <time>2018-12-25T14:42:00.000Z</time>
      </trkpt>
      <trkpt lat="48.14986" lon="0.3712">
        <ele>117.1</ele>
        <time>2018-12-25T14:42:07.000Z</time>
      </trkpt>
      <trkpt lat="48.14995" lon="0.37118">
        <ele>121.6</ele>
        <time>2018-12-25T14:42:16.000Z</time>
      </trkpt>
      <trkpt lat="48.15004" lon="0.37118">
        <ele>124</ele>
        <time>2018-12-25T14:42:25.000Z</time>
      </trkpt>
      <trkpt lat="48.15014" lon="0.37121">
        <ele>126.5</ele>
        <time>2018-12-25T14:42:33.000Z</time>
      </trkpt>
      <trkpt lat="48.15023" lon="0.37126">
        <ele>132.1</ele>
        <time>2018-12-25T14:42:40.000Z</time>
      </trkpt>
      <trkpt lat="48.15032" lon="0.37132">
        <ele>135.9</ele>
        <time>2018-12-25T14:42:47.000Z</time>
      </trkpt>
      <trkpt lat="48.15041" lon="0.37137">
        <ele>140.1</ele>
        <time>2018-12-25T14:42:54.000Z</time>
      </trkpt>
      <trkpt lat="48.1505" lon="0.37142">
        <ele>145.3</ele>
        <time>2018-12-25T14:43:02.000Z</time>
      </trkpt>
      <trkpt lat="48.1506" lon="0.37144">
        <ele>147</ele>
        <time>2018-12-25T14:43:09.000Z</time>
      </trkpt>
      <trkpt lat="48.1507" lon="0.37145">
        <ele>149</ele>
        <time>2018-12-25T14:43:17.000Z</time>
      </trkpt>
      <trkpt lat="48.1508" lon="0.37146">
        <ele>148</ele>
        <time>2018-12-25T14:43:25.000Z</time>
      </trkpt>
      <trkpt lat="48.15089" lon="0.37146">
        <ele>148.2</ele>
        <time>2018-12-25T14:43:33.000Z</time>
      </trkpt>
      <trkpt lat="48.15099" lon="0.37152">
        <ele>142.2</ele>
        <time>2018-12-25T14:43:44.000Z</time>
      </trkpt>
      <trkpt lat="48.15108" lon="0.37155">
        <ele>139.2</ele>
        <time>2018-12-25T14:43:57.000Z</time>
      </trkpt>
      <trkpt lat="48.15117" lon="0.37154">
        <ele>133.1</ele>
        <time>2018-12-25T14:44:09.000Z</time>
      </trkpt>
      <trkpt lat="48.15127" lon="0.37152">
        <ele>131.3</ele>
        <time>2018-12-25T14:44:20.000Z</time>
      </trkpt>
      <trkpt lat="48.15136" lon="0.37147">
        <ele>132</ele>
        <time>2018-12-25T14:44:30.000Z</time>
      </trkpt>
      <trkpt lat="48.15146" lon="0.37145">
        <ele>131.6</ele>
        <time>2018-12-25T14:44:44.000Z</time>
      </trkpt>
      <trkpt lat="48.15155" lon="0.37148">
        <ele>134.6</ele>
        <time>2018-12-25T14:44:55.000Z</time>
      </trkpt>
      <trkpt lat="48.15155" lon="0.37162">
        <ele>136.2</ele>
        <time>2018-12-25T14:45:22.000Z</time>
      </trkpt>
      <trkpt lat="48.15146" lon="0.37166">
        <ele>133.5</ele>
        <time>2018-12-25T14:45:34.000Z</time>
      </trkpt>
      <trkpt lat="48.15138" lon="0.37173">
        <ele>133.5</ele>
        <time>2018-12-25T14:45:46.000Z</time>
      </trkpt>
      <trkpt lat="48.1513" lon="0.3718">
        <ele>129.5</ele>
        <time>2018-12-25T14:45:56.000Z</time>
      </trkpt>
      <trkpt lat="48.15123" lon="0.37189">
        <ele>124.2</ele>
        <time>2018-12-25T14:46:09.000Z</time>
      </trkpt>
      <trkpt lat="48.15117" lon="0.37199">
        <ele>125</ele>
        <time>2018-12-25T14:46:19.000Z</time>
      </trkpt>
      <trkpt lat="48.15113" lon="0.37212">
        <ele>126.6</ele>
        <time>2018-12-25T14:46:31.000Z</time>
      </trkpt>
      <trkpt lat="48.15112" lon="0.37229">
        <ele>126.5</ele>
        <time>2018-12-25T14:47:13.000Z</time>
      </trkpt>
      <trkpt lat="48.15115" lon="0.37242">
        <ele>144.2</ele>
        <time>2018-12-25T14:48:04.000Z</time>
      </trkpt>
      <trkpt lat="48.15123" lon="0.37249">
        <ele>142.8</ele>
        <time>2018-12-25T14:48:19.000Z</time>
      </trkpt>
      <trkpt lat="48.15132" lon="0.37256">
        <ele>143.6</ele>
        <time>2018-12-25T14:48:29.000Z</time>
      </trkpt>
      <trkpt lat="48.1514" lon="0.37262">
        <ele>145.5</ele>
        <time>2018-12-25T14:48:38.000Z</time>
      </trkpt>
      <trkpt lat="48.15148" lon="0.37269">
        <ele>139.2</ele>
        <time>2018-12-25T14:48:54.000Z</time>
      </trkpt>
      <trkpt lat="48.15157" lon="0.37273">
        <ele>139.6</ele>
        <time>2018-12-25T14:49:09.000Z</time>
      </trkpt>
      <trkpt lat="48.15163" lon="0.37284">
        <ele>139.5</ele>
        <time>2018-12-25T14:49:29.000Z</time>
      </trkpt>
      <trkpt lat="48.15171" lon="0.37291">
        <ele>137.2</ele>
        <time>2018-12-25T14:49:46.000Z</time>
      </trkpt>
      <trkpt lat="48.1518" lon="0.37291">
        <ele>141</ele>
        <time>2018-12-25T14:50:14.000Z</time>
      </trkpt>
      <trkpt lat="48.15189" lon="0.37291">
        <ele>146.8</ele>
        <time>2018-12-25T14:50:27.000Z</time>
      </trkpt>
      <trkpt lat="48.15196" lon="0.37275">
        <ele>148.4</ele>
        <time>2018-12-25T14:52:09.000Z</time>
      </trkpt>
      <trkpt lat="48.15197" lon="0.37261">
        <ele>150.6</ele>
        <time>2018-12-25T14:52:24.000Z</time>
      </trkpt>
      <trkpt lat="48.15201" lon="0.37245">
        <ele>152.1</ele>
        <time>2018-12-25T14:52:41.000Z</time>
      </trkpt>
      <trkpt lat="48.15204" lon="0.37231">
        <ele>150.4</ele>
        <time>2018-12-25T14:52:51.000Z</time>
      </trkpt>
      <trkpt lat="48.15207" lon="0.37217">
        <ele>151.1</ele>
        <time>2018-12-25T14:53:04.000Z</time>
      </trkpt>
      <trkpt lat="48.15205" lon="0.37204">
        <ele>160.6</ele>
        <time>2018-12-25T14:53:14.000Z</time>
      </trkpt>
      <trkpt lat="48.15209" lon="0.37192">
        <ele>163.5</ele>
        <time>2018-12-25T14:53:25.000Z</time>
      </trkpt>
      <trkpt lat="48.15217" lon="0.37185">
        <ele>164.1</ele>
        <time>2018-12-25T14:53:31.000Z</time>
      </trkpt>
      <trkpt lat="48.15226" lon="0.3718">
        <ele>159.2</ele>
        <time>2018-12-25T14:53:38.000Z</time>
      </trkpt>
      <trkpt lat="48.15235" lon="0.37177">
        <ele>158.5</ele>
        <time>2018-12-25T14:53:47.000Z</time>
      </trkpt>
      <trkpt lat="48.15244" lon="0.37176">
        <ele>159.6</ele>
        <time>2018-12-25T14:53:56.000Z</time>
      </trkpt>
      <trkpt lat="48.15253" lon="0.37176">
        <ele>161</ele>
        <time>2018-12-25T14:54:06.000Z</time>
      </trkpt>
      <trkpt lat="48.15262" lon="0.37181">
        <ele>161.8</ele>
        <time>2018-12-25T14:54:15.000Z</time>
      </trkpt>
      <trkpt lat="48.15271" lon="0.37183">
        <ele>164.3</ele>
        <time>2018-12-25T14:54:24.000Z</time>
      </trkpt>
      <trkpt lat="48.15281" lon="0.37185">
        <ele>166.6</ele>
        <time>2018-12-25T14:54:33.000Z</time>
      </trkpt>
      <trkpt lat="48.15285" lon="0.37199">
        <ele>166.2</ele>
        <time>2018-12-25T14:54:42.000Z</time>
      </trkpt>
      <trkpt lat="48.15287" lon="0.37214">
        <ele>164.3</ele>
        <time>2018-12-25T14:54:51.000Z</time>
      </trkpt>
      <trkpt lat="48.15288" lon="0.37228">
        <ele>164.2</ele>
        <time>2018-12-25T14:54:59.000Z</time>
      </trkpt>
      <trkpt lat="48.15286" lon="0.37242">
        <ele>164.9</ele>
        <time>2018-12-25T14:55:09.000Z</time>
      </trkpt>
      <trkpt lat="48.15287" lon="0.37256">
        <ele>164.1</ele>
        <time>2018-12-25T14:55:19.000Z</time>
      </trkpt>
      <trkpt lat="48.15295" lon="0.37261">
        <ele>169.1</ele>
        <time>2018-12-25T14:55:33.000Z</time>
      </trkpt>
      <trkpt lat="48.15303" lon="0.37268">
        <ele>167.8</ele>
        <time>2018-12-25T14:55:46.000Z</time>
      </trkpt>
      <trkpt lat="48.15313" lon="0.37274">
        <ele>163.9</ele>
        <time>2018-12-25T14:55:54.000Z</time>
      </trkpt>
      <trkpt lat="48.15322" lon="0.37277">
        <ele>164.3</ele>
        <time>2018-12-25T14:56:03.000Z</time>
      </trkpt>
      <trkpt lat="48.15332" lon="0.37279">
        <ele>160.6</ele>
        <time>2018-12-25T14:56:13.000Z</time>
      </trkpt>
      <trkpt lat="48.15341" lon="0.37278">
        <ele>158.6</ele>
        <time>2018-12-25T14:56:21.000Z</time>
      </trkpt>
      <trkpt lat="48.1535" lon="0.3727">
        <ele>157.5</ele>
        <time>2018-12-25T14:56:30.000Z</time>
      </trkpt>
      <trkpt lat="48.15357" lon="0.3726">
        <ele>157.5</ele>
        <time>2018-12-25T14:56:38.000Z</time>
      </trkpt>
      <trkpt lat="48.15365" lon="0.37249">
        <ele>164.1</ele>
        <time>2018-12-25T14:56:51.000Z</time>
      </trkpt>
      <trkpt lat="48.15371" lon="0.37239">
        <ele>168.7</ele>
        <time>2018-12-25T14:57:05.000Z</time>
      </trkpt>
      <trkpt lat="48.15377" lon="0.3723">
        <ele>171</ele>
        <time>2018-12-25T14:57:13.000Z</time>
      </trkpt>
      <trkpt lat="48.15384" lon="0.37219">
        <ele>172.8</ele>
        <time>2018-12-25T14:57:25.000Z</time>
      </trkpt>
      <trkpt lat="48.15389" lon="0.37206">
        <ele>169.1</ele>
        <time>2018-12-25T14:57:34.000Z</time>
      </trkpt>
      <trkpt lat="48.15393" lon="0.37194">
        <ele>168.6</ele>
        <time>2018-12-25T14:57:40.000Z</time>
      </trkpt>
      <trkpt lat="48.15398" lon="0.37181">
        <ele>168.1</ele>
        <time>2018-12-25T14:57:48.000Z</time>
      </trkpt>
      <trkpt lat="48.15403" lon="0.37169">
        <ele>167.5</ele>
        <time>2018-12-25T14:57:58.000Z</time>
      </trkpt>
      <trkpt lat="48.15407" lon="0.37157">
        <ele>164.5</ele>
        <time>2018-12-25T14:58:09.000Z</time>
      </trkpt>
      <trkpt lat="48.15413" lon="0.37144">
        <ele>163.9</ele>
        <time>2018-12-25T14:58:17.000Z</time>
      </trkpt>
      <trkpt lat="48.15418" lon="0.37132">
        <ele>163.1</ele>
        <time>2018-12-25T14:58:25.000Z</time>
      </trkpt>
      <trkpt lat="48.15423" lon="0.3712">
        <ele>161.2</ele>
        <time>2018-12-25T14:58:32.000Z</time>
      </trkpt>
      <trkpt lat="48.15429" lon="0.37109">
        <ele>160.4</ele>
        <time>2018-12-25T14:58:43.000Z</time>
      </trkpt>
      <trkpt lat="48.15435" lon="0.37099">
        <ele>158.9</ele>
        <time>2018-12-25T14:58:54.000Z</time>
      </trkpt>
      <trkpt lat="48.15442" lon="0.3709">
        <ele>158.6</ele>
        <time>2018-12-25T14:59:06.000Z</time>
      </trkpt>
      <trkpt lat="48.15451" lon="0.37085">
        <ele>157.4</ele>
        <time>2018-12-25T14:59:15.000Z</time>
      </trkpt>
      <trkpt lat="48.15461" lon="0.37084">
        <ele>154.8</ele>
        <time>2018-12-25T14:59:25.000Z</time>
      </trkpt>
      <trkpt lat="48.1547" lon="0.37078">
        <ele>151.2</ele>
        <time>2018-12-25T14:59:35.000Z</time>
      </trkpt>
      <trkpt lat="48.15478" lon="0.37071">
        <ele>146.9</ele>
        <time>2018-12-25T14:59:45.000Z</time>
      </trkpt>
      <trkpt lat="48.15487" lon="0.37064">
        <ele>141.2</ele>
        <time>2018-12-25T14:59:54.000Z</time>
      </trkpt>
      <trkpt lat="48.15493" lon="0.37054">
        <ele>137.6</ele>
        <time>2018-12-25T15:00:03.000Z</time>
      </trkpt>
      <trkpt lat="48.15501" lon="0.37041">
        <ele>130.8</ele>
        <time>2018-12-25T15:00:38.000Z</time>
      </trkpt>
      <trkpt lat="48.15508" lon="0.3703">
        <ele>132.1</ele>
        <time>2018-12-25T15:00:53.000Z</time>
      </trkpt>
      <trkpt lat="48.15516" lon="0.37023">
        <ele>129.8</ele>
        <time>2018-12-25T15:01:03.000Z</time>
      </trkpt>
      <trkpt lat="48.15522" lon="0.37013">
        <ele>123.9</ele>
        <time>2018-12-25T15:01:11.000Z</time>
      </trkpt>
      <trkpt lat="48.1553" lon="0.37005">
        <ele>119.4</ele>
        <time>2018-12-25T15:01:18.000Z</time>
      </trkpt>
      <trkpt lat="48.15538" lon="0.37002">
        <ele>117.1</ele>
        <time>2018-12-25T15:01:25.000Z</time>
      </trkpt>
      <trkpt lat="48.15548" lon="0.37005">
        <ele>113.7</ele>
        <time>2018-12-25T15:01:33.000Z</time>
      </trkpt>
      <trkpt lat="48.15556" lon="0.37013">
        <ele>111.7</ele>
        <time>2018-12-25T15:01:41.000Z</time>
      </trkpt>
      <trkpt lat="48.15563" lon="0.37023">
        <ele>109</ele>
        <time>2018-12-25T15:01:47.000Z</time>
      </trkpt>
      <trkpt lat="48.1557" lon="0.37034">
        <ele>106.4</ele>
        <time>2018-12-25T15:01:54.000Z</time>
      </trkpt>
      <trkpt lat="48.15577" lon="0.37043">
        <ele>105.7</ele>
        <time>2018-12-25T15:02:01.000Z</time>
      </trkpt>
      <trkpt lat="48.15584" lon="0.37053">
        <ele>104.5</ele>
        <time>2018-12-25T15:02:09.000Z</time>
      </trkpt>
      <trkpt lat="48.15592" lon="0.37062">
        <ele>104.5</ele>
        <time>2018-12-25T15:02:18.000Z</time>
      </trkpt>
      <trkpt lat="48.15599" lon="0.37071">
        <ele>106.5</ele>
        <time>2018-12-25T15:02:30.000Z</time>
      </trkpt>
      <trkpt lat="48.15606" lon="0.37082">
        <ele>104.6</ele>
        <time>2018-12-25T15:02:37.000Z</time>
      </trkpt>
      <trkpt lat="48.15611" lon="0.37094">
        <ele>102.7</ele>
        <time>2018-12-25T15:02:44.000Z</time>
      </trkpt>
      <trkpt lat="48.15619" lon="0.37103">
        <ele>101.9</ele>
        <time>2018-12-25T15:02:51.000Z</time>
      </trkpt>
      <trkpt lat="48.15626" lon="0.37111">
        <ele>101.8</ele>
        <time>2018-12-25T15:02:58.000Z</time>
      </trkpt>
      <trkpt lat="48.15633" lon="0.37121">
        <ele>101</ele>
        <time>2018-12-25T15:03:05.000Z</time>
      </trkpt>
      <trkpt lat="48.1564" lon="0.37131">
        <ele>101.1</ele>
        <time>2018-12-25T15:03:12.000Z</time>
      </trkpt>
      <trkpt lat="48.15647" lon="0.37139">
        <ele>101.9</ele>
        <time>2018-12-25T15:03:20.000Z</time>
      </trkpt>
      <trkpt lat="48.15654" lon="0.37149">
        <ele>101.9</ele>
        <time>2018-12-25T15:03:27.000Z</time>
      </trkpt>
      <trkpt lat="48.15661" lon="0.37159">
        <ele>101.5</ele>
        <time>2018-12-25T15:03:34.000Z</time>
      </trkpt>
      <trkpt lat="48.15667" lon="0.37169">
        <ele>101</ele>
        <time>2018-12-25T15:03:41.000Z</time>
      </trkpt>
      <trkpt lat="48.15675" lon="0.37179">
        <ele>100.7</ele>
        <time>2018-12-25T15:03:49.000Z</time>
      </trkpt>
      <trkpt lat="48.15682" lon="0.37189">
        <ele>100.2</ele>
        <time>2018-12-25T15:03:56.000Z</time>
      </trkpt>
      <trkpt lat="48.1569" lon="0.37199">
        <ele>100.4</ele>
        <time>2018-12-25T15:04:04.000Z</time>
      </trkpt>
      <trkpt lat="48.15696" lon="0.37209">
        <ele>101.6</ele>
        <time>2018-12-25T15:04:11.000Z</time>
      </trkpt>
      <trkpt lat="48.15704" lon="0.37219">
        <ele>102.9</ele>
        <time>2018-12-25T15:04:19.000Z</time>
      </trkpt>
      <trkpt lat="48.15711" lon="0.37229">
        <ele>103.5</ele>
        <time>2018-12-25T15:04:27.000Z</time>
      </trkpt>
      <trkpt lat="48.15718" lon="0.3724">
        <ele>105.3</ele>
        <time>2018-12-25T15:04:35.000Z</time>
      </trkpt>
      <trkpt lat="48.15724" lon="0.37249">
        <ele>107.1</ele>
        <time>2018-12-25T15:04:43.000Z</time>
      </trkpt>
      <trkpt lat="48.15731" lon="0.37261">
        <ele>108.7</ele>
        <time>2018-12-25T15:04:51.000Z</time>
      </trkpt>
      <trkpt lat="48.15737" lon="0.37271">
        <ele>110.5</ele>
        <time>2018-12-25T15:04:59.000Z</time>
      </trkpt>
      <trkpt lat="48.15745" lon="0.3728">
        <ele>109.6</ele>
        <time>2018-12-25T15:05:06.000Z</time>
      </trkpt>
      <trkpt lat="48.15753" lon="0.37288">
        <ele>109</ele>
        <time>2018-12-25T15:05:13.000Z</time>
      </trkpt>
      <trkpt lat="48.1576" lon="0.37299">
        <ele>110.3</ele>
        <time>2018-12-25T15:05:21.000Z</time>
      </trkpt>
      <trkpt lat="48.15767" lon="0.3731">
        <ele>111.4</ele>
        <time>2018-12-25T15:05:28.000Z</time>
      </trkpt>
      <trkpt lat="48.15774" lon="0.37321">
        <ele>114.8</ele>
        <time>2018-12-25T15:05:36.000Z</time>
      </trkpt>
      <trkpt lat="48.1578" lon="0.37332">
        <ele>116.1</ele>
        <time>2018-12-25T15:05:43.000Z</time>
      </trkpt>
      <trkpt lat="48.15786" lon="0.37342">
        <ele>113.9</ele>
        <time>2018-12-25T15:05:49.000Z</time>
      </trkpt>
      <trkpt lat="48.15794" lon="0.37351">
        <ele>108.3</ele>
        <time>2018-12-25T15:05:55.000Z</time>
      </trkpt>
      <trkpt lat="48.15802" lon="0.37362">
        <ele>106.4</ele>
        <time>2018-12-25T15:06:02.000Z</time>
      </trkpt>
      <trkpt lat="48.15808" lon="0.37372">
        <ele>105.7</ele>
        <time>2018-12-25T15:06:08.000Z</time>
      </trkpt>
      <trkpt lat="48.15815" lon="0.37382">
        <ele>105.4</ele>
        <time>2018-12-25T15:06:15.000Z</time>
      </trkpt>
      <trkpt lat="48.15823" lon="0.37391">
        <ele>105.1</ele>
        <time>2018-12-25T15:06:22.000Z</time>
      </trkpt>
      <trkpt lat="48.15832" lon="0.37391">
        <ele>104.9</ele>
        <time>2018-12-25T15:06:29.000Z</time>
      </trkpt>
      <trkpt lat="48.15842" lon="0.37387">
        <ele>108.4</ele>
        <time>2018-12-25T15:06:39.000Z</time>
      </trkpt>
      <trkpt lat="48.1585" lon="0.37382">
        <ele>113</ele>
        <time>2018-12-25T15:06:49.000Z</time>
      </trkpt>
      <trkpt lat="48.15859" lon="0.37376">
        <ele>117</ele>
        <time>2018-12-25T15:07:00.000Z</time>
      </trkpt>
      <trkpt lat="48.15868" lon="0.37369">
        <ele>124.2</ele>
        <time>2018-12-25T15:07:10.000Z</time>
      </trkpt>
      <trkpt lat="48.15877" lon="0.37364">
        <ele>129.2</ele>
        <time>2018-12-25T15:07:18.000Z</time>
      </trkpt>
      <trkpt lat="48.15886" lon="0.37357">
        <ele>131.1</ele>
        <time>2018-12-25T15:07:25.000Z</time>
      </trkpt>
      <trkpt lat="48.15895" lon="0.37349">
        <ele>130.7</ele>
        <time>2018-12-25T15:07:32.000Z</time>
      </trkpt>
      <trkpt lat="48.15903" lon="0.37342">
        <ele>128.6</ele>
        <time>2018-12-25T15:07:38.000Z</time>
      </trkpt>
      <trkpt lat="48.1591" lon="0.37333">
        <ele>126.2</ele>
        <time>2018-12-25T15:07:44.000Z</time>
      </trkpt>
      <trkpt lat="48.15919" lon="0.37325">
        <ele>124.3</ele>
        <time>2018-12-25T15:07:50.000Z</time>
      </trkpt>
      <trkpt lat="48.15928" lon="0.37317">
        <ele>123.1</ele>
        <time>2018-12-25T15:07:57.000Z</time>
      </trkpt>
      <trkpt lat="48.15933" lon="0.37304">
        <ele>122.8</ele>
        <time>2018-12-25T15:08:04.000Z</time>
      </trkpt>
      <trkpt lat="48.15938" lon="0.37292">
        <ele>121.5</ele>
        <time>2018-12-25T15:08:09.000Z</time>
      </trkpt>
      <trkpt lat="48.15941" lon="0.37279">
        <ele>119.2</ele>
        <time>2018-12-25T15:08:17.000Z</time>
      </trkpt>
      <trkpt lat="48.15942" lon="0.37265">
        <ele>120</ele>
        <time>2018-12-25T15:08:22.000Z</time>
      </trkpt>
      <trkpt lat="48.15939" lon="0.37252">
        <ele>116.9</ele>
        <time>2018-12-25T15:08:29.000Z</time>
      </trkpt>
      <trkpt lat="48.15933" lon="0.37241">
        <ele>115.5</ele>
        <time>2018-12-25T15:08:36.000Z</time>
      </trkpt>
      <trkpt lat="48.15929" lon="0.37229">
        <ele>115.8</ele>
        <time>2018-12-25T15:08:43.000Z</time>
      </trkpt>
      <trkpt lat="48.15925" lon="0.37216">
        <ele>116.1</ele>
        <time>2018-12-25T15:08:53.000Z</time>
      </trkpt>
      <trkpt lat="48.15929" lon="0.37202">
        <ele>119.3</ele>
        <time>2018-12-25T15:09:09.000Z</time>
      </trkpt>
      <trkpt lat="48.15934" lon="0.37191">
        <ele>121.8</ele>
        <time>2018-12-25T15:09:19.000Z</time>
      </trkpt>
      <trkpt lat="48.15939" lon="0.37179">
        <ele>121.4</ele>
        <time>2018-12-25T15:09:28.000Z</time>
      </trkpt>
      <trkpt lat="48.15944" lon="0.37167">
        <ele>122.5</ele>
        <time>2018-12-25T15:09:35.000Z</time>
      </trkpt>
      <trkpt lat="48.15949" lon="0.37155">
        <ele>122.5</ele>
        <time>2018-12-25T15:09:41.000Z</time>
      </trkpt>
      <trkpt lat="48.15954" lon="0.37143">
        <ele>120</ele>
        <time>2018-12-25T15:09:46.000Z</time>
      </trkpt>
      <trkpt lat="48.15961" lon="0.37131">
        <ele>118.9</ele>
        <time>2018-12-25T15:09:52.000Z</time>
      </trkpt>
      <trkpt lat="48.15969" lon="0.37121">
        <ele>118.9</ele>
        <time>2018-12-25T15:09:58.000Z</time>
      </trkpt>
      <trkpt lat="48.15976" lon="0.37112">
        <ele>118.8</ele>
        <time>2018-12-25T15:10:05.000Z</time>
      </trkpt>
      <trkpt lat="48.15983" lon="0.37102">
        <ele>118.8</ele>
        <time>2018-12-25T15:10:12.000Z</time>
      </trkpt>
      <trkpt lat="48.15991" lon="0.37092">
        <ele>118.1</ele>
        <time>2018-12-25T15:10:18.000Z</time>
      </trkpt>
      <trkpt lat="48.15997" lon="0.3708">
        <ele>115.8</ele>
        <time>2018-12-25T15:10:25.000Z</time>
      </trkpt>
      <trkpt lat="48.16004" lon="0.37071">
        <ele>115.7</ele>
        <time>2018-12-25T15:10:32.000Z</time>
      </trkpt>
      <trkpt lat="48.16011" lon="0.37061">
        <ele>115.6</ele>
        <time>2018-12-25T15:10:38.000Z</time>
      </trkpt>
      <trkpt lat="48.16017" lon="0.37051">
        <ele>113.9</ele>
        <time>2018-12-25T15:10:43.000Z</time>
      </trkpt>
      <trkpt lat="48.16008" lon="0.37055">
        <ele>97.5</ele>
        <time>2018-12-25T15:11:05.000Z</time>
      </trkpt>
      <trkpt lat="48.16016" lon="0.37046">
        <ele>99.1</ele>
        <time>2018-12-25T15:11:24.000Z</time>
      </trkpt>
      <trkpt lat="48.16023" lon="0.37036">
        <ele>99.4</ele>
        <time>2018-12-25T15:11:32.000Z</time>
      </trkpt>
      <trkpt lat="48.16029" lon="0.37024">
        <ele>100.6</ele>
        <time>2018-12-25T15:11:41.000Z</time>
      </trkpt>
      <trkpt lat="48.16036" lon="0.37013">
        <ele>99.8</ele>
        <time>2018-12-25T15:11:49.000Z</time>
      </trkpt>
      <trkpt lat="48.16042" lon="0.37003">
        <ele>98.9</ele>
        <time>2018-12-25T15:11:56.000Z</time>
      </trkpt>
      <trkpt lat="48.16048" lon="0.36992">
        <ele>99.1</ele>
        <time>2018-12-25T15:12:03.000Z</time>
      </trkpt>
      <trkpt lat="48.16055" lon="0.36981">
        <ele>98.5</ele>
        <time>2018-12-25T15:12:10.000Z</time>
      </trkpt>
      <trkpt lat="48.16061" lon="0.3697">
        <ele>97.3</ele>
        <time>2018-12-25T15:12:17.000Z</time>
      </trkpt>
      <trkpt lat="48.16069" lon="0.3696">
        <ele>96.6</ele>
        <time>2018-12-25T15:12:24.000Z</time>
      </trkpt>
      <trkpt lat="48.16076" lon="0.36949">
        <ele>96.1</ele>
        <time>2018-12-25T15:12:31.000Z</time>
      </trkpt>
      <trkpt lat="48.16083" lon="0.36938">
        <ele>95.5</ele>
        <time>2018-12-25T15:12:38.000Z</time>
      </trkpt>
      <trkpt lat="48.16089" lon="0.36927">
        <ele>95.3</ele>
        <time>2018-12-25T15:12:45.000Z</time>
      </trkpt>
      <trkpt lat="48.16097" lon="0.36917">
        <ele>94.5</ele>
        <time>2018-12-25T15:12:52.000Z</time>
      </trkpt>
      <trkpt lat="48.16105" lon="0.36908">
        <ele>94</ele>
        <time>2018-12-25T15:12:59.000Z</time>
      </trkpt>
      <trkpt lat="48.16114" lon="0.36905">
        <ele>93.8</ele>
        <time>2018-12-25T15:13:06.000Z</time>
      </trkpt>
      <trkpt lat="48.16124" lon="0.36908">
        <ele>93.8</ele>
        <time>2018-12-25T15:13:13.000Z</time>
      </trkpt>
      <trkpt lat="48.16133" lon="0.36915">
        <ele>92.8</ele>
        <time>2018-12-25T15:13:20.000Z</time>
      </trkpt>
      <trkpt lat="48.16142" lon="0.36921">
        <ele>91.5</ele>
        <time>2018-12-25T15:13:26.000Z</time>
      </trkpt>
      <trkpt lat="48.1615" lon="0.36928">
        <ele>90.8</ele>
        <time>2018-12-25T15:13:32.000Z</time>
      </trkpt>
      <trkpt lat="48.16157" lon="0.36935">
        <ele>90</ele>
        <time>2018-12-25T15:13:38.000Z</time>
      </trkpt>
      <trkpt lat="48.16166" lon="0.36941">
        <ele>89.5</ele>
        <time>2018-12-25T15:13:45.000Z</time>
      </trkpt>
      <trkpt lat="48.16175" lon="0.36948">
        <ele>89.5</ele>
        <time>2018-12-25T15:13:52.000Z</time>
      </trkpt>
      <trkpt lat="48.16183" lon="0.36958">
        <ele>89.9</ele>
        <time>2018-12-25T15:13:59.000Z</time>
      </trkpt>
      <trkpt lat="48.16191" lon="0.36967">
        <ele>90.4</ele>
        <time>2018-12-25T15:14:06.000Z</time>
      </trkpt>
      <trkpt lat="48.16199" lon="0.36975">
        <ele>91.1</ele>
        <time>2018-12-25T15:14:13.000Z</time>
      </trkpt>
      <trkpt lat="48.16207" lon="0.36983">
        <ele>92.7</ele>
        <time>2018-12-25T15:14:21.000Z</time>
      </trkpt>
      <trkpt lat="48.16216" lon="0.36991">
        <ele>100.2</ele>
        <time>2018-12-25T15:14:42.000Z</time>
      </trkpt>
      <trkpt lat="48.16224" lon="0.36998">
        <ele>100.1</ele>
        <time>2018-12-25T15:14:49.000Z</time>
      </trkpt>
      <trkpt lat="48.16231" lon="0.37008">
        <ele>99.5</ele>
        <time>2018-12-25T15:14:57.000Z</time>
      </trkpt>
      <trkpt lat="48.16238" lon="0.37018">
        <ele>96.7</ele>
        <time>2018-12-25T15:15:05.000Z</time>
      </trkpt>
      <trkpt lat="48.16246" lon="0.37026">
        <ele>99.7</ele>
        <time>2018-12-25T15:15:13.000Z</time>
      </trkpt>
      <trkpt lat="48.16254" lon="0.37028">
        <ele>105</ele>
        <time>2018-12-25T15:15:21.000Z</time>
      </trkpt>
      <trkpt lat="48.16264" lon="0.37032">
        <ele>112.6</ele>
        <time>2018-12-25T15:15:31.000Z</time>
      </trkpt>
      <trkpt lat="48.16274" lon="0.37032">
        <ele>109.1</ele>
        <time>2018-12-25T15:15:38.000Z</time>
      </trkpt>
      <trkpt lat="48.16281" lon="0.37043">
        <ele>108.9</ele>
        <time>2018-12-25T15:15:45.000Z</time>
      </trkpt>
      <trkpt lat="48.16285" lon="0.37055">
        <ele>106.3</ele>
        <time>2018-12-25T15:15:50.000Z</time>
      </trkpt>
      <trkpt lat="48.16291" lon="0.37067">
        <ele>104.6</ele>
        <time>2018-12-25T15:15:55.000Z</time>
      </trkpt>
      <trkpt lat="48.16298" lon="0.37077">
        <ele>102.3</ele>
        <time>2018-12-25T15:16:01.000Z</time>
      </trkpt>
      <trkpt lat="48.16306" lon="0.37083">
        <ele>100.5</ele>
        <time>2018-12-25T15:16:09.000Z</time>
      </trkpt>
      <trkpt lat="48.16316" lon="0.37085">
        <ele>107.8</ele>
        <time>2018-12-25T15:16:17.000Z</time>
      </trkpt>
      <trkpt lat="48.16324" lon="0.37076">
        <ele>108.3</ele>
        <time>2018-12-25T15:16:23.000Z</time>
      </trkpt>
      <trkpt lat="48.16333" lon="0.37072">
        <ele>110.8</ele>
        <time>2018-12-25T15:16:31.000Z</time>
      </trkpt>
      <trkpt lat="48.16343" lon="0.37074">
        <ele>112.3</ele>
        <time>2018-12-25T15:16:38.000Z</time>
      </trkpt>
      <trkpt lat="48.16352" lon="0.37079">
        <ele>117.5</ele>
        <time>2018-12-25T15:16:46.000Z</time>
      </trkpt>
      <trkpt lat="48.16362" lon="0.37083">
        <ele>121</ele>
        <time>2018-12-25T15:16:54.000Z</time>
      </trkpt>
      <trkpt lat="48.16372" lon="0.37086">
        <ele>122</ele>
        <time>2018-12-25T15:17:01.000Z</time>
      </trkpt>
      <trkpt lat="48.1638" lon="0.37078">
        <ele>119.6</ele>
        <time>2018-12-25T15:17:08.000Z</time>
      </trkpt>
      <trkpt lat="48.16385" lon="0.37066">
        <ele>118.6</ele>
        <time>2018-12-25T15:17:15.000Z</time>
      </trkpt>
      <trkpt lat="48.16389" lon="0.37054">
        <ele>116.5</ele>
        <time>2018-12-25T15:17:21.000Z</time>
      </trkpt>
      <trkpt lat="48.16396" lon="0.37044">
        <ele>116.2</ele>
        <time>2018-12-25T15:17:27.000Z</time>
      </trkpt>
      <trkpt lat="48.16403" lon="0.37034">
        <ele>114</ele>
        <time>2018-12-25T15:17:34.000Z</time>
      </trkpt>
      <trkpt lat="48.16412" lon="0.37034">
        <ele>109.6</ele>
        <time>2018-12-25T15:17:43.000Z</time>
      </trkpt>
      <trkpt lat="48.16421" lon="0.37031">
        <ele>102.4</ele>
        <time>2018-12-25T15:17:49.000Z</time>
      </trkpt>
      <trkpt lat="48.1643" lon="0.37034">
        <ele>104.8</ele>
        <time>2018-12-25T15:18:00.000Z</time>
      </trkpt>
      <trkpt lat="48.16439" lon="0.37038">
        <ele>110.7</ele>
        <time>2018-12-25T15:18:10.000Z</time>
      </trkpt>
      <trkpt lat="48.16448" lon="0.37042">
        <ele>113.8</ele>
        <time>2018-12-25T15:18:18.000Z</time>
      </trkpt>
      <trkpt lat="48.16457" lon="0.37045">
        <ele>110</ele>
        <time>2018-12-25T15:18:25.000Z</time>
      </trkpt>
      <trkpt lat="48.16467" lon="0.37051">
        <ele>111.5</ele>
        <time>2018-12-25T15:18:32.000Z</time>
      </trkpt>
      <trkpt lat="48.16476" lon="0.37055">
        <ele>113.1</ele>
        <time>2018-12-25T15:18:39.000Z</time>
      </trkpt>
      <trkpt lat="48.16485" lon="0.37059">
        <ele>116</ele>
        <time>2018-12-25T15:18:45.000Z</time>
      </trkpt>
      <trkpt lat="48.16494" lon="0.37063">
        <ele>119.8</ele>
        <time>2018-12-25T15:18:51.000Z</time>
      </trkpt>
      <trkpt lat="48.16503" lon="0.37065">
        <ele>122.9</ele>
        <time>2018-12-25T15:18:58.000Z</time>
      </trkpt>
      <trkpt lat="48.16512" lon="0.37066">
        <ele>124.4</ele>
        <time>2018-12-25T15:19:06.000Z</time>
      </trkpt>
      <trkpt lat="48.16522" lon="0.37069">
        <ele>124.3</ele>
        <time>2018-12-25T15:19:13.000Z</time>
      </trkpt>
      <trkpt lat="48.16531" lon="0.37069">
        <ele>123.4</ele>
        <time>2018-12-25T15:19:21.000Z</time>
      </trkpt>
      <trkpt lat="48.16541" lon="0.37071">
        <ele>122.8</ele>
        <time>2018-12-25T15:19:29.000Z</time>
      </trkpt>
      <trkpt lat="48.16551" lon="0.37074">
        <ele>123.5</ele>
        <time>2018-12-25T15:19:38.000Z</time>
      </trkpt>
      <trkpt lat="48.1656" lon="0.37076">
        <ele>123.6</ele>
        <time>2018-12-25T15:19:46.000Z</time>
      </trkpt>
      <trkpt lat="48.1657" lon="0.37079">
        <ele>126.1</ele>
        <time>2018-12-25T15:19:55.000Z</time>
      </trkpt>
      <trkpt lat="48.1658" lon="0.37078">
        <ele>126</ele>
        <time>2018-12-25T15:20:04.000Z</time>
      </trkpt>
      <trkpt lat="48.16589" lon="0.37073">
        <ele>118.7</ele>
        <time>2018-12-25T15:20:27.000Z</time>
      </trkpt>
      <trkpt lat="48.16591" lon="0.37087">
        <ele>123.4</ele>
        <time>2018-12-25T15:20:55.000Z</time>
      </trkpt>
      <trkpt lat="48.16588" lon="0.371">
        <ele>125.1</ele>
        <time>2018-12-25T15:21:16.000Z</time>
      </trkpt>
      <trkpt lat="48.16583" lon="0.37111">
        <ele>130.5</ele>
        <time>2018-12-25T15:21:24.000Z</time>
      </trkpt>
      <trkpt lat="48.16578" lon="0.37123">
        <ele>142.4</ele>
        <time>2018-12-25T15:21:34.000Z</time>
      </trkpt>
      <trkpt lat="48.16571" lon="0.37135">
        <ele>150.4</ele>
        <time>2018-12-25T15:21:44.000Z</time>
      </trkpt>
      <trkpt lat="48.16567" lon="0.37147">
        <ele>151.2</ele>
        <time>2018-12-25T15:21:49.000Z</time>
      </trkpt>
      <trkpt lat="48.16565" lon="0.37162">
        <ele>148.6</ele>
        <time>2018-12-25T15:21:55.000Z</time>
      </trkpt>
      <trkpt lat="48.16566" lon="0.37177">
        <ele>142.7</ele>
        <time>2018-12-25T15:22:02.000Z</time>
      </trkpt>
      <trkpt lat="48.16563" lon="0.37191">
        <ele>141.6</ele>
        <time>2018-12-25T15:22:09.000Z</time>
      </trkpt>
      <trkpt lat="48.16562" lon="0.37204">
        <ele>136.5</ele>
        <time>2018-12-25T15:22:16.000Z</time>
      </trkpt>
      <trkpt lat="48.16559" lon="0.37219">
        <ele>134.4</ele>
        <time>2018-12-25T15:22:23.000Z</time>
      </trkpt>
      <trkpt lat="48.16558" lon="0.37234">
        <ele>131.8</ele>
        <time>2018-12-25T15:22:29.000Z</time>
      </trkpt>
      <trkpt lat="48.16557" lon="0.37248">
        <ele>126</ele>
        <time>2018-12-25T15:22:35.000Z</time>
      </trkpt>
      <trkpt lat="48.16555" lon="0.37262">
        <ele>122</ele>
        <time>2018-12-25T15:22:41.000Z</time>
      </trkpt>
      <trkpt lat="48.16553" lon="0.37277">
        <ele>120.7</ele>
        <time>2018-12-25T15:22:48.000Z</time>
      </trkpt>
      <trkpt lat="48.16551" lon="0.37291">
        <ele>119.3</ele>
        <time>2018-12-25T15:22:55.000Z</time>
      </trkpt>
      <trkpt lat="48.16547" lon="0.37304">
        <ele>119.8</ele>
        <time>2018-12-25T15:23:03.000Z</time>
      </trkpt>
      <trkpt lat="48.16543" lon="0.37319">
        <ele>122.9</ele>
        <time>2018-12-25T15:23:11.000Z</time>
      </trkpt>
      <trkpt lat="48.1654" lon="0.37333">
        <ele>126.8</ele>
        <time>2018-12-25T15:23:19.000Z</time>
      </trkpt>
      <trkpt lat="48.16536" lon="0.37345">
        <ele>129.6</ele>
        <time>2018-12-25T15:23:27.000Z</time>
      </trkpt>
      <trkpt lat="48.1653" lon="0.37357">
        <ele>128.9</ele>
        <time>2018-12-25T15:23:34.000Z</time>
      </trkpt>
      <trkpt lat="48.16525" lon="0.37369">
        <ele>130.3</ele>
        <time>2018-12-25T15:23:41.000Z</time>
      </trkpt>
      <trkpt lat="48.16515" lon="0.37374">
        <ele>124.6</ele>
        <time>2018-12-25T15:23:45.000Z</time>
      </trkpt>
      <trkpt lat="48.16505" lon="0.37383">
        <ele>123.2</ele>
        <time>2018-12-25T15:23:52.000Z</time>
      </trkpt>
      <trkpt lat="48.16497" lon="0.3739">
        <ele>119.1</ele>
        <time>2018-12-25T15:23:57.000Z</time>
      </trkpt>
      <trkpt lat="48.1649" lon="0.374">
        <ele>117.4</ele>
        <time>2018-12-25T15:24:03.000Z</time>
      </trkpt>
      <trkpt lat="48.16483" lon="0.37411">
        <ele>121</ele>
        <time>2018-12-25T15:24:13.000Z</time>
      </trkpt>
      <trkpt lat="48.16477" lon="0.37421">
        <ele>123</ele>
        <time>2018-12-25T15:24:22.000Z</time>
      </trkpt>
      <trkpt lat="48.1647" lon="0.3743">
        <ele>125.9</ele>
        <time>2018-12-25T15:24:32.000Z</time>
      </trkpt>
      <trkpt lat="48.16462" lon="0.37438">
        <ele>125</ele>
        <time>2018-12-25T15:24:38.000Z</time>
      </trkpt>
      <trkpt lat="48.16454" lon="0.37449">
        <ele>125.8</ele>
        <time>2018-12-25T15:24:47.000Z</time>
      </trkpt>
      <trkpt lat="48.16446" lon="0.37457">
        <ele>127.1</ele>
        <time>2018-12-25T15:24:54.000Z</time>
      </trkpt>
      <trkpt lat="48.16438" lon="0.37463">
        <ele>128.9</ele>
        <time>2018-12-25T15:25:01.000Z</time>
      </trkpt>
      <trkpt lat="48.1643" lon="0.3747">
        <ele>131.2</ele>
        <time>2018-12-25T15:25:10.000Z</time>
      </trkpt>
      <trkpt lat="48.16422" lon="0.37478">
        <ele>134.2</ele>
        <time>2018-12-25T15:25:19.000Z</time>
      </trkpt>
      <trkpt lat="48.16414" lon="0.3749">
        <ele>135.3</ele>
        <time>2018-12-25T15:25:29.000Z</time>
      </trkpt>
      <trkpt lat="48.16407" lon="0.375">
        <ele>136.1</ele>
        <time>2018-12-25T15:25:38.000Z</time>
      </trkpt>
      <trkpt lat="48.16399" lon="0.3751">
        <ele>139</ele>
        <time>2018-12-25T15:25:47.000Z</time>
      </trkpt>
      <trkpt lat="48.16395" lon="0.37521">
        <ele>135.3</ele>
        <time>2018-12-25T15:25:55.000Z</time>
      </trkpt>
      <trkpt lat="48.16386" lon="0.3753">
        <ele>132.9</ele>
        <time>2018-12-25T15:26:02.000Z</time>
      </trkpt>
      <trkpt lat="48.16378" lon="0.37537">
        <ele>130</ele>
        <time>2018-12-25T15:26:10.000Z</time>
      </trkpt>
      <trkpt lat="48.16372" lon="0.37549">
        <ele>127.4</ele>
        <time>2018-12-25T15:26:20.000Z</time>
      </trkpt>
      <trkpt lat="48.16365" lon="0.37556">
        <ele>130.3</ele>
        <time>2018-12-25T15:26:28.000Z</time>
      </trkpt>
      <trkpt lat="48.16358" lon="0.37568">
        <ele>128.6</ele>
        <time>2018-12-25T15:26:33.000Z</time>
      </trkpt>
      <trkpt lat="48.16349" lon="0.37575">
        <ele>127.5</ele>
        <time>2018-12-25T15:26:39.000Z</time>
      </trkpt>
      <trkpt lat="48.16339" lon="0.37583">
        <ele>127</ele>
        <time>2018-12-25T15:26:44.000Z</time>
      </trkpt>
      <trkpt lat="48.1633" lon="0.3759">
        <ele>126.5</ele>
        <time>2018-12-25T15:26:49.000Z</time>
      </trkpt>
      <trkpt lat="48.16324" lon="0.376">
        <ele>129.5</ele>
        <time>2018-12-25T15:26:57.000Z</time>
      </trkpt>
      <trkpt lat="48.16316" lon="0.3761">
        <ele>130.1</ele>
        <time>2018-12-25T15:27:04.000Z</time>
      </trkpt>
      <trkpt lat="48.16309" lon="0.37619">
        <ele>132.7</ele>
        <time>2018-12-25T15:27:11.000Z</time>
      </trkpt>
      <trkpt lat="48.16301" lon="0.37626">
        <ele>132.3</ele>
        <time>2018-12-25T15:27:17.000Z</time>
      </trkpt>
      <trkpt lat="48.16293" lon="0.37637">
        <ele>133.2</ele>
        <time>2018-12-25T15:27:23.000Z</time>
      </trkpt>
      <trkpt lat="48.16287" lon="0.37648">
        <ele>134.9</ele>
        <time>2018-12-25T15:27:29.000Z</time>
      </trkpt>
      <trkpt lat="48.16282" lon="0.3766">
        <ele>136.7</ele>
        <time>2018-12-25T15:27:35.000Z</time>
      </trkpt>
      <trkpt lat="48.16277" lon="0.37672">
        <ele>138.8</ele>
        <time>2018-12-25T15:27:42.000Z</time>
      </trkpt>
      <trkpt lat="48.16272" lon="0.37684">
        <ele>139.6</ele>
        <time>2018-12-25T15:27:49.000Z</time>
      </trkpt>
      <trkpt lat="48.16267" lon="0.37696">
        <ele>140.6</ele>
        <time>2018-12-25T15:27:55.000Z</time>
      </trkpt>
      <trkpt lat="48.1626" lon="0.37707">
        <ele>141.5</ele>
        <time>2018-12-25T15:28:00.000Z</time>
      </trkpt>
      <trkpt lat="48.16254" lon="0.3772">
        <ele>147.7</ele>
        <time>2018-12-25T15:28:07.000Z</time>
      </trkpt>
      <trkpt lat="48.16245" lon="0.37731">
        <ele>150.3</ele>
        <time>2018-12-25T15:28:12.000Z</time>
      </trkpt>
      <trkpt lat="48.1624" lon="0.37743">
        <ele>150.2</ele>
        <time>2018-12-25T15:28:17.000Z</time>
      </trkpt>
      <trkpt lat="48.16234" lon="0.37754">
        <ele>157.8</ele>
        <time>2018-12-25T15:28:24.000Z</time>
      </trkpt>
      <trkpt lat="48.16229" lon="0.37766">
        <ele>156.4</ele>
        <time>2018-12-25T15:28:29.000Z</time>
      </trkpt>
      <trkpt lat="48.16225" lon="0.37781">
        <ele>154.3</ele>
        <time>2018-12-25T15:28:35.000Z</time>
      </trkpt>
      <trkpt lat="48.16218" lon="0.3779">
        <ele>153.8</ele>
        <time>2018-12-25T15:28:40.000Z</time>
      </trkpt>
      <trkpt lat="48.16217" lon="0.37807">
        <ele>149.9</ele>
        <time>2018-12-25T15:28:46.000Z</time>
      </trkpt>
      <trkpt lat="48.16221" lon="0.37823">
        <ele>142</ele>
        <time>2018-12-25T15:28:51.000Z</time>
      </trkpt>
      <trkpt lat="48.16219" lon="0.37837">
        <ele>136.8</ele>
        <time>2018-12-25T15:28:59.000Z</time>
      </trkpt>
      <trkpt lat="48.16216" lon="0.37851">
        <ele>134.7</ele>
        <time>2018-12-25T15:29:07.000Z</time>
      </trkpt>
      <trkpt lat="48.16214" lon="0.37864">
        <ele>129.6</ele>
        <time>2018-12-25T15:29:13.000Z</time>
      </trkpt>
      <trkpt lat="48.16208" lon="0.37876">
        <ele>123.4</ele>
        <time>2018-12-25T15:29:19.000Z</time>
      </trkpt>
      <trkpt lat="48.16201" lon="0.37888">
        <ele>116</ele>
        <time>2018-12-25T15:29:25.000Z</time>
      </trkpt>
      <trkpt lat="48.16194" lon="0.37898">
        <ele>115.2</ele>
        <time>2018-12-25T15:29:32.000Z</time>
      </trkpt>
      <trkpt lat="48.16185" lon="0.37897">
        <ele>115.1</ele>
        <time>2018-12-25T15:29:41.000Z</time>
      </trkpt>
      <trkpt lat="48.16176" lon="0.37893">
        <ele>111.4</ele>
        <time>2018-12-25T15:29:48.000Z</time>
      </trkpt>
      <trkpt lat="48.16167" lon="0.37887">
        <ele>108.9</ele>
        <time>2018-12-25T15:29:54.000Z</time>
      </trkpt>
      <trkpt lat="48.16158" lon="0.3788">
        <ele>108.2</ele>
        <time>2018-12-25T15:30:02.000Z</time>
      </trkpt>
      <trkpt lat="48.1615" lon="0.37873">
        <ele>107.2</ele>
        <time>2018-12-25T15:30:09.000Z</time>
      </trkpt>
      <trkpt lat="48.16142" lon="0.37864">
        <ele>107.1</ele>
        <time>2018-12-25T15:30:18.000Z</time>
      </trkpt>
      <trkpt lat="48.16133" lon="0.37856">
        <ele>105.2</ele>
        <time>2018-12-25T15:30:25.000Z</time>
      </trkpt>
      <trkpt lat="48.16125" lon="0.37848">
        <ele>103.8</ele>
        <time>2018-12-25T15:30:32.000Z</time>
      </trkpt>
      <trkpt lat="48.16117" lon="0.37841">
        <ele>103.1</ele>
        <time>2018-12-25T15:30:39.000Z</time>
      </trkpt>
      <trkpt lat="48.16108" lon="0.37833">
        <ele>102.4</ele>
        <time>2018-12-25T15:30:47.000Z</time>
      </trkpt>
      <trkpt lat="48.161" lon="0.37825">
        <ele>102.5</ele>
        <time>2018-12-25T15:30:54.000Z</time>
      </trkpt>
      <trkpt lat="48.16092" lon="0.37817">
        <ele>102.7</ele>
        <time>2018-12-25T15:31:01.000Z</time>
      </trkpt>
      <trkpt lat="48.16083" lon="0.3781">
        <ele>102.1</ele>
        <time>2018-12-25T15:31:08.000Z</time>
      </trkpt>
      <trkpt lat="48.16074" lon="0.37802">
        <ele>101.7</ele>
        <time>2018-12-25T15:31:15.000Z</time>
      </trkpt>
      <trkpt lat="48.16067" lon="0.37793">
        <ele>102</ele>
        <time>2018-12-25T15:31:22.000Z</time>
      </trkpt>
      <trkpt lat="48.1606" lon="0.37783">
        <ele>103</ele>
        <time>2018-12-25T15:31:30.000Z</time>
      </trkpt>
      <trkpt lat="48.16052" lon="0.37774">
        <ele>103.9</ele>
        <time>2018-12-25T15:31:38.000Z</time>
      </trkpt>
      <trkpt lat="48.16045" lon="0.37764">
        <ele>104.2</ele>
        <time>2018-12-25T15:31:45.000Z</time>
      </trkpt>
      <trkpt lat="48.16037" lon="0.37754">
        <ele>104.1</ele>
        <time>2018-12-25T15:31:52.000Z</time>
      </trkpt>
      <trkpt lat="48.1603" lon="0.37745">
        <ele>104.8</ele>
        <time>2018-12-25T15:31:59.000Z</time>
      </trkpt>
      <trkpt lat="48.16023" lon="0.37735">
        <ele>104.8</ele>
        <time>2018-12-25T15:32:06.000Z</time>
      </trkpt>
      <trkpt lat="48.16016" lon="0.37727">
        <ele>104.5</ele>
        <time>2018-12-25T15:32:13.000Z</time>
      </trkpt>
      <trkpt lat="48.16007" lon="0.3772">
        <ele>107.2</ele>
        <time>2018-12-25T15:32:24.000Z</time>
      </trkpt>
      <trkpt lat="48.15999" lon="0.37728">
        <ele>109.4</ele>
        <time>2018-12-25T15:32:32.000Z</time>
      </trkpt>
      <trkpt lat="48.15992" lon="0.37738">
        <ele>114.4</ele>
        <time>2018-12-25T15:32:43.000Z</time>
      </trkpt>
      <trkpt lat="48.15984" lon="0.37749">
        <ele>114.4</ele>
        <time>2018-12-25T15:32:50.000Z</time>
      </trkpt>
      <trkpt lat="48.15977" lon="0.3776">
        <ele>114.6</ele>
        <time>2018-12-25T15:32:57.000Z</time>
      </trkpt>
      <trkpt lat="48.15971" lon="0.37769">
        <ele>115.1</ele>
        <time>2018-12-25T15:33:04.000Z</time>
      </trkpt>
      <trkpt lat="48.15965" lon="0.37781">
        <ele>115.8</ele>
        <time>2018-12-25T15:33:11.000Z</time>
      </trkpt>
      <trkpt lat="48.15958" lon="0.37792">
        <ele>117.5</ele>
        <time>2018-12-25T15:33:19.000Z</time>
      </trkpt>
      <trkpt lat="48.15951" lon="0.37802">
        <ele>118</ele>
        <time>2018-12-25T15:33:26.000Z</time>
      </trkpt>
      <trkpt lat="48.15944" lon="0.37812">
        <ele>117.8</ele>
        <time>2018-12-25T15:33:34.000Z</time>
      </trkpt>
      <trkpt lat="48.15937" lon="0.3782">
        <ele>117.4</ele>
        <time>2018-12-25T15:33:48.000Z</time>
      </trkpt>
      <trkpt lat="48.15928" lon="0.37827">
        <ele>121.7</ele>
        <time>2018-12-25T15:33:59.000Z</time>
      </trkpt>
      <trkpt lat="48.1592" lon="0.37834">
        <ele>122.4</ele>
        <time>2018-12-25T15:34:08.000Z</time>
      </trkpt>
      <trkpt lat="48.15912" lon="0.3784">
        <ele>124.7</ele>
        <time>2018-12-25T15:34:16.000Z</time>
      </trkpt>
      <trkpt lat="48.15904" lon="0.37848">
        <ele>127.8</ele>
        <time>2018-12-25T15:34:25.000Z</time>
      </trkpt>
      <trkpt lat="48.15896" lon="0.37857">
        <ele>131.4</ele>
        <time>2018-12-25T15:34:33.000Z</time>
      </trkpt>
      <trkpt lat="48.1589" lon="0.37868">
        <ele>135.7</ele>
        <time>2018-12-25T15:34:43.000Z</time>
      </trkpt>
      <trkpt lat="48.15885" lon="0.3788">
        <ele>139.5</ele>
        <time>2018-12-25T15:34:51.000Z</time>
      </trkpt>
      <trkpt lat="48.1588" lon="0.37892">
        <ele>144.5</ele>
        <time>2018-12-25T15:35:02.000Z</time>
      </trkpt>
      <trkpt lat="48.15874" lon="0.37902">
        <ele>149.1</ele>
        <time>2018-12-25T15:35:11.000Z</time>
      </trkpt>
      <trkpt lat="48.15867" lon="0.37913">
        <ele>148</ele>
        <time>2018-12-25T15:35:20.000Z</time>
      </trkpt>
      <trkpt lat="48.15859" lon="0.3792">
        <ele>144.6</ele>
        <time>2018-12-25T15:35:26.000Z</time>
      </trkpt>
      <trkpt lat="48.15852" lon="0.3793">
        <ele>142.3</ele>
        <time>2018-12-25T15:35:34.000Z</time>
      </trkpt>
      <trkpt lat="48.15847" lon="0.37942">
        <ele>143</ele>
        <time>2018-12-25T15:35:44.000Z</time>
      </trkpt>
      <trkpt lat="48.15842" lon="0.37954">
        <ele>145.3</ele>
        <time>2018-12-25T15:35:54.000Z</time>
      </trkpt>
      <trkpt lat="48.15837" lon="0.37966">
        <ele>144.9</ele>
        <time>2018-12-25T15:36:03.000Z</time>
      </trkpt>
      <trkpt lat="48.15831" lon="0.37975">
        <ele>143.6</ele>
        <time>2018-12-25T15:36:11.000Z</time>
      </trkpt>
      <trkpt lat="48.15824" lon="0.3799">
        <ele>141.3</ele>
        <time>2018-12-25T15:37:08.000Z</time>
      </trkpt>
      <trkpt lat="48.15819" lon="0.38002">
        <ele>146.9</ele>
        <time>2018-12-25T15:37:18.000Z</time>
      </trkpt>
      <trkpt lat="48.15814" lon="0.38014">
        <ele>148.6</ele>
        <time>2018-12-25T15:37:30.000Z</time>
      </trkpt>
      <trkpt lat="48.15807" lon="0.38025">
        <ele>145.6</ele>
        <time>2018-12-25T15:37:39.000Z</time>
      </trkpt>
      <trkpt lat="48.15801" lon="0.38036">
        <ele>146.3</ele>
        <time>2018-12-25T15:37:47.000Z</time>
      </trkpt>
      <trkpt lat="48.15794" lon="0.38047">
        <ele>150.7</ele>
        <time>2018-12-25T15:37:55.000Z</time>
      </trkpt>
      <trkpt lat="48.15786" lon="0.38052">
        <ele>151.2</ele>
        <time>2018-12-25T15:38:03.000Z</time>
      </trkpt>
      <trkpt lat="48.15776" lon="0.38052">
        <ele>148.4</ele>
        <time>2018-12-25T15:38:15.000Z</time>
      </trkpt>
      <trkpt lat="48.15767" lon="0.38054">
        <ele>146.6</ele>
        <time>2018-12-25T15:38:19.000Z</time>
      </trkpt>
      <trkpt lat="48.15756" lon="0.38057">
        <ele>143.4</ele>
        <time>2018-12-25T15:38:24.000Z</time>
      </trkpt>
      <trkpt lat="48.15747" lon="0.38062">
        <ele>141.3</ele>
        <time>2018-12-25T15:38:30.000Z</time>
      </trkpt>
      <trkpt lat="48.15738" lon="0.38061">
        <ele>143.7</ele>
        <time>2018-12-25T15:38:41.000Z</time>
      </trkpt>
      <trkpt lat="48.15728" lon="0.3806">
        <ele>143.9</ele>
        <time>2018-12-25T15:38:49.000Z</time>
      </trkpt>
      <trkpt lat="48.15719" lon="0.38059">
        <ele>144</ele>
        <time>2018-12-25T15:38:55.000Z</time>
      </trkpt>
      <trkpt lat="48.1571" lon="0.38058">
        <ele>142.8</ele>
        <time>2018-12-25T15:39:00.000Z</time>
      </trkpt>
      <trkpt lat="48.157" lon="0.38055">
        <ele>143.9</ele>
        <time>2018-12-25T15:39:07.000Z</time>
      </trkpt>
      <trkpt lat="48.15691" lon="0.38048">
        <ele>142.3</ele>
        <time>2018-12-25T15:39:30.000Z</time>
      </trkpt>
      <trkpt lat="48.15682" lon="0.38043">
        <ele>145.1</ele>
        <time>2018-12-25T15:39:42.000Z</time>
      </trkpt>
      <trkpt lat="48.15673" lon="0.38038">
        <ele>147.9</ele>
        <time>2018-12-25T15:39:51.000Z</time>
      </trkpt>
      <trkpt lat="48.15665" lon="0.38031">
        <ele>149.3</ele>
        <time>2018-12-25T15:40:02.000Z</time>
      </trkpt>
      <trkpt lat="48.15657" lon="0.38024">
        <ele>149.5</ele>
        <time>2018-12-25T15:40:13.000Z</time>
      </trkpt>
      <trkpt lat="48.15648" lon="0.38018">
        <ele>148.5</ele>
        <time>2018-12-25T15:40:21.000Z</time>
      </trkpt>
      <trkpt lat="48.1564" lon="0.3801">
        <ele>146.8</ele>
        <time>2018-12-25T15:40:28.000Z</time>
      </trkpt>
      <trkpt lat="48.15633" lon="0.38">
        <ele>145.7</ele>
        <time>2018-12-25T15:40:36.000Z</time>
      </trkpt>
      <trkpt lat="48.15625" lon="0.37996">
        <ele>144.5</ele>
        <time>2018-12-25T15:40:44.000Z</time>
      </trkpt>
      <trkpt lat="48.15616" lon="0.3799">
        <ele>144.9</ele>
        <time>2018-12-25T15:40:51.000Z</time>
      </trkpt>
      <trkpt lat="48.15607" lon="0.37985">
        <ele>144.1</ele>
        <time>2018-12-25T15:40:58.000Z</time>
      </trkpt>
      <trkpt lat="48.15599" lon="0.37979">
        <ele>145.6</ele>
        <time>2018-12-25T15:41:05.000Z</time>
      </trkpt>
      <trkpt lat="48.1559" lon="0.37972">
        <ele>145.7</ele>
        <time>2018-12-25T15:41:13.000Z</time>
      </trkpt>
      <trkpt lat="48.15582" lon="0.37963">
        <ele>144.8</ele>
        <time>2018-12-25T15:41:21.000Z</time>
      </trkpt>
      <trkpt lat="48.15574" lon="0.37955">
        <ele>145.1</ele>
        <time>2018-12-25T15:41:30.000Z</time>
      </trkpt>
      <trkpt lat="48.15564" lon="0.37948">
        <ele>145.2</ele>
        <time>2018-12-25T15:41:37.000Z</time>
      </trkpt>
      <trkpt lat="48.15556" lon="0.37942">
        <ele>145.7</ele>
        <time>2018-12-25T15:41:44.000Z</time>
      </trkpt>
      <trkpt lat="48.15547" lon="0.37936">
        <ele>146.3</ele>
        <time>2018-12-25T15:41:53.000Z</time>
      </trkpt>
      <trkpt lat="48.15539" lon="0.37929">
        <ele>151</ele>
        <time>2018-12-25T15:42:02.000Z</time>
      </trkpt>
      <trkpt lat="48.15531" lon="0.37921">
        <ele>151.2</ele>
        <time>2018-12-25T15:42:09.000Z</time>
      </trkpt>
      <trkpt lat="48.15522" lon="0.37918">
        <ele>151.8</ele>
        <time>2018-12-25T15:42:32.000Z</time>
      </trkpt>
      <trkpt lat="48.15513" lon="0.3791">
        <ele>153.3</ele>
        <time>2018-12-25T15:42:41.000Z</time>
      </trkpt>
      <trkpt lat="48.15503" lon="0.37906">
        <ele>152.8</ele>
        <time>2018-12-25T15:42:48.000Z</time>
      </trkpt>
      <trkpt lat="48.15493" lon="0.37904">
        <ele>151.9</ele>
        <time>2018-12-25T15:42:53.000Z</time>
      </trkpt>
      <trkpt lat="48.15485" lon="0.37901">
        <ele>151.5</ele>
        <time>2018-12-25T15:42:59.000Z</time>
      </trkpt>
      <trkpt lat="48.15475" lon="0.37898">
        <ele>150.4</ele>
        <time>2018-12-25T15:43:05.000Z</time>
      </trkpt>
      <trkpt lat="48.15465" lon="0.37896">
        <ele>148.9</ele>
        <time>2018-12-25T15:43:10.000Z</time>
      </trkpt>
      <trkpt lat="48.15456" lon="0.37894">
        <ele>147.4</ele>
        <time>2018-12-25T15:43:16.000Z</time>
      </trkpt>
      <trkpt lat="48.15446" lon="0.37892">
        <ele>146.9</ele>
        <time>2018-12-25T15:43:22.000Z</time>
      </trkpt>
      <trkpt lat="48.15436" lon="0.3789">
        <ele>145.4</ele>
        <time>2018-12-25T15:43:29.000Z</time>
      </trkpt>
      <trkpt lat="48.15427" lon="0.37887">
        <ele>145.2</ele>
        <time>2018-12-25T15:43:35.000Z</time>
      </trkpt>
      <trkpt lat="48.15416" lon="0.37885">
        <ele>144.5</ele>
        <time>2018-12-25T15:43:42.000Z</time>
      </trkpt>
      <trkpt lat="48.15407" lon="0.37884">
        <ele>143.9</ele>
        <time>2018-12-25T15:43:48.000Z</time>
      </trkpt>
      <trkpt lat="48.15398" lon="0.3788">
        <ele>143.3</ele>
        <time>2018-12-25T15:43:55.000Z</time>
      </trkpt>
      <trkpt lat="48.15387" lon="0.37878">
        <ele>142.9</ele>
        <time>2018-12-25T15:44:02.000Z</time>
      </trkpt>
      <trkpt lat="48.15377" lon="0.37875">
        <ele>142.6</ele>
        <time>2018-12-25T15:44:09.000Z</time>
      </trkpt>
      <trkpt lat="48.15368" lon="0.37873">
        <ele>142.1</ele>
        <time>2018-12-25T15:44:15.000Z</time>
      </trkpt>
      <trkpt lat="48.15358" lon="0.37871">
        <ele>140.7</ele>
        <time>2018-12-25T15:44:23.000Z</time>
      </trkpt>
      <trkpt lat="48.15348" lon="0.37876">
        <ele>139.3</ele>
        <time>2018-12-25T15:44:31.000Z</time>
      </trkpt>
      <trkpt lat="48.15339" lon="0.37882">
        <ele>139.1</ele>
        <time>2018-12-25T15:44:38.000Z</time>
      </trkpt>
      <trkpt lat="48.15331" lon="0.37889">
        <ele>138</ele>
        <time>2018-12-25T15:44:45.000Z</time>
      </trkpt>
      <trkpt lat="48.15322" lon="0.37891">
        <ele>137</ele>
        <time>2018-12-25T15:44:53.000Z</time>
      </trkpt>
      <trkpt lat="48.15313" lon="0.37894">
        <ele>135.5</ele>
        <time>2018-12-25T15:44:59.000Z</time>
      </trkpt>
      <trkpt lat="48.15303" lon="0.37899">
        <ele>134.3</ele>
        <time>2018-12-25T15:45:06.000Z</time>
      </trkpt>
      <trkpt lat="48.15295" lon="0.37904">
        <ele>134.1</ele>
        <time>2018-12-25T15:45:13.000Z</time>
      </trkpt>
      <trkpt lat="48.15286" lon="0.3791">
        <ele>133.7</ele>
        <time>2018-12-25T15:45:21.000Z</time>
      </trkpt>
      <trkpt lat="48.15276" lon="0.37915">
        <ele>132.3</ele>
        <time>2018-12-25T15:45:28.000Z</time>
      </trkpt>
      <trkpt lat="48.15268" lon="0.37925">
        <ele>130.5</ele>
        <time>2018-12-25T15:45:35.000Z</time>
      </trkpt>
      <trkpt lat="48.1526" lon="0.37932">
        <ele>131.4</ele>
        <time>2018-12-25T15:45:44.000Z</time>
      </trkpt>
      <trkpt lat="48.15252" lon="0.37941">
        <ele>134.3</ele>
        <time>2018-12-25T15:45:59.000Z</time>
      </trkpt>
      <trkpt lat="48.15244" lon="0.37949">
        <ele>133.2</ele>
        <time>2018-12-25T15:46:09.000Z</time>
      </trkpt>
      <trkpt lat="48.15236" lon="0.37955">
        <ele>135.3</ele>
        <time>2018-12-25T15:46:18.000Z</time>
      </trkpt>
      <trkpt lat="48.15227" lon="0.37961">
        <ele>137</ele>
        <time>2018-12-25T15:46:25.000Z</time>
      </trkpt>
      <trkpt lat="48.15218" lon="0.37969">
        <ele>136.2</ele>
        <time>2018-12-25T15:46:30.000Z</time>
      </trkpt>
      <trkpt lat="48.15211" lon="0.37978">
        <ele>136.6</ele>
        <time>2018-12-25T15:46:36.000Z</time>
      </trkpt>
      <trkpt lat="48.15201" lon="0.37987">
        <ele>133.8</ele>
        <time>2018-12-25T15:46:41.000Z</time>
      </trkpt>
      <trkpt lat="48.15194" lon="0.37997">
        <ele>129.4</ele>
        <time>2018-12-25T15:46:51.000Z</time>
      </trkpt>
      <trkpt lat="48.1519" lon="0.38011">
        <ele>129</ele>
        <time>2018-12-25T15:47:00.000Z</time>
      </trkpt>
      <trkpt lat="48.15188" lon="0.38024">
        <ele>129.1</ele>
        <time>2018-12-25T15:47:08.000Z</time>
      </trkpt>
      <trkpt lat="48.15186" lon="0.38038">
        <ele>126.7</ele>
        <time>2018-12-25T15:47:15.000Z</time>
      </trkpt>
      <trkpt lat="48.15182" lon="0.38051">
        <ele>122.4</ele>
        <time>2018-12-25T15:47:22.000Z</time>
      </trkpt>
      <trkpt lat="48.15175" lon="0.3806">
        <ele>121</ele>
        <time>2018-12-25T15:47:30.000Z</time>
      </trkpt>
      <trkpt lat="48.15167" lon="0.38067">
        <ele>119.8</ele>
        <time>2018-12-25T15:47:37.000Z</time>
      </trkpt>
      <trkpt lat="48.15159" lon="0.38074">
        <ele>116.8</ele>
        <time>2018-12-25T15:47:44.000Z</time>
      </trkpt>
      <trkpt lat="48.1515" lon="0.3808">
        <ele>113.7</ele>
        <time>2018-12-25T15:47:51.000Z</time>
      </trkpt>
      <trkpt lat="48.15141" lon="0.38086">
        <ele>111.4</ele>
        <time>2018-12-25T15:47:58.000Z</time>
      </trkpt>
      <trkpt lat="48.15132" lon="0.38091">
        <ele>110.8</ele>
        <time>2018-12-25T15:48:05.000Z</time>
      </trkpt>
      <trkpt lat="48.15123" lon="0.38095">
        <ele>110.2</ele>
        <time>2018-12-25T15:48:12.000Z</time>
      </trkpt>
      <trkpt lat="48.15113" lon="0.38098">
        <ele>108.2</ele>
        <time>2018-12-25T15:48:20.000Z</time>
      </trkpt>
      <trkpt lat="48.15105" lon="0.38102">
        <ele>107.6</ele>
        <time>2018-12-25T15:48:26.000Z</time>
      </trkpt>
      <trkpt lat="48.15096" lon="0.38109">
        <ele>106.1</ele>
        <time>2018-12-25T15:48:32.000Z</time>
      </trkpt>
      <trkpt lat="48.15088" lon="0.38117">
        <ele>104.9</ele>
        <time>2018-12-25T15:48:39.000Z</time>
      </trkpt>
      <trkpt lat="48.15078" lon="0.38123">
        <ele>102.9</ele>
        <time>2018-12-25T15:48:53.000Z</time>
      </trkpt>
      <trkpt lat="48.15069" lon="0.38124">
        <ele>105.8</ele>
        <time>2018-12-25T15:49:02.000Z</time>
      </trkpt>
      <trkpt lat="48.1506" lon="0.38125">
        <ele>105.7</ele>
        <time>2018-12-25T15:49:09.000Z</time>
      </trkpt>
      <trkpt lat="48.15051" lon="0.38126">
        <ele>105.8</ele>
        <time>2018-12-25T15:49:17.000Z</time>
      </trkpt>
      <trkpt lat="48.1504" lon="0.38128">
        <ele>105.6</ele>
        <time>2018-12-25T15:49:24.000Z</time>
      </trkpt>
      <trkpt lat="48.15031" lon="0.38129">
        <ele>105.4</ele>
        <time>2018-12-25T15:49:30.000Z</time>
      </trkpt>
      <trkpt lat="48.15022" lon="0.38129">
        <ele>104.9</ele>
        <time>2018-12-25T15:49:37.000Z</time>
      </trkpt>
      <trkpt lat="48.15013" lon="0.38129">
        <ele>104.8</ele>
        <time>2018-12-25T15:49:43.000Z</time>
      </trkpt>
      <trkpt lat="48.15003" lon="0.38129">
        <ele>104.5</ele>
        <time>2018-12-25T15:49:51.000Z</time>
      </trkpt>
      <trkpt lat="48.14993" lon="0.38129">
        <ele>104.4</ele>
        <time>2018-12-25T15:49:58.000Z</time>
      </trkpt>
      <trkpt lat="48.14983" lon="0.38129">
        <ele>104.4</ele>
        <time>2018-12-25T15:50:05.000Z</time>
      </trkpt>
      <trkpt lat="48.14975" lon="0.38134">
        <ele>104.5</ele>
        <time>2018-12-25T15:50:14.000Z</time>
      </trkpt>
      <trkpt lat="48.14971" lon="0.38148">
        <ele>107</ele>
        <time>2018-12-25T15:50:23.000Z</time>
      </trkpt>
      <trkpt lat="48.14967" lon="0.38161">
        <ele>107.7</ele>
        <time>2018-12-25T15:50:30.000Z</time>
      </trkpt>
      <trkpt lat="48.14966" lon="0.38176">
        <ele>117</ele>
        <time>2018-12-25T15:50:41.000Z</time>
      </trkpt>
      <trkpt lat="48.14962" lon="0.38188">
        <ele>120.7</ele>
        <time>2018-12-25T15:50:49.000Z</time>
      </trkpt>
      <trkpt lat="48.14954" lon="0.38197">
        <ele>119.7</ele>
        <time>2018-12-25T15:50:54.000Z</time>
      </trkpt>
      <trkpt lat="48.14949" lon="0.38209">
        <ele>120.4</ele>
        <time>2018-12-25T15:51:00.000Z</time>
      </trkpt>
      <trkpt lat="48.14945" lon="0.38222">
        <ele>119.8</ele>
        <time>2018-12-25T15:51:06.000Z</time>
      </trkpt>
      <trkpt lat="48.14941" lon="0.38236">
        <ele>117.9</ele>
        <time>2018-12-25T15:51:13.000Z</time>
      </trkpt>
      <trkpt lat="48.1494" lon="0.38249">
        <ele>114.6</ele>
        <time>2018-12-25T15:51:20.000Z</time>
      </trkpt>
      <trkpt lat="48.14936" lon="0.38264">
        <ele>113</ele>
        <time>2018-12-25T15:51:28.000Z</time>
      </trkpt>
      <trkpt lat="48.14934" lon="0.38278">
        <ele>112</ele>
        <time>2018-12-25T15:51:34.000Z</time>
      </trkpt>
      <trkpt lat="48.14931" lon="0.38293">
        <ele>112.3</ele>
        <time>2018-12-25T15:51:41.000Z</time>
      </trkpt>
      <trkpt lat="48.14929" lon="0.38307">
        <ele>112</ele>
        <time>2018-12-25T15:51:48.000Z</time>
      </trkpt>
      <trkpt lat="48.14927" lon="0.38322">
        <ele>112.5</ele>
        <time>2018-12-25T15:51:55.000Z</time>
      </trkpt>
      <trkpt lat="48.14926" lon="0.38337">
        <ele>114.5</ele>
        <time>2018-12-25T15:52:02.000Z</time>
      </trkpt>
      <trkpt lat="48.14927" lon="0.3835">
        <ele>117.1</ele>
        <time>2018-12-25T15:52:08.000Z</time>
      </trkpt>
      <trkpt lat="48.14925" lon="0.38366">
        <ele>117.6</ele>
        <time>2018-12-25T15:52:15.000Z</time>
      </trkpt>
      <trkpt lat="48.14924" lon="0.38379">
        <ele>118.7</ele>
        <time>2018-12-25T15:52:21.000Z</time>
      </trkpt>
      <trkpt lat="48.14922" lon="0.38394">
        <ele>116.9</ele>
        <time>2018-12-25T15:52:27.000Z</time>
      </trkpt>
      <trkpt lat="48.14919" lon="0.38407">
        <ele>113.7</ele>
        <time>2018-12-25T15:52:33.000Z</time>
      </trkpt>
      <trkpt lat="48.14916" lon="0.38421">
        <ele>113.6</ele>
        <time>2018-12-25T15:52:39.000Z</time>
      </trkpt>
      <trkpt lat="48.14914" lon="0.38435">
        <ele>114.3</ele>
        <time>2018-12-25T15:52:46.000Z</time>
      </trkpt>
      <trkpt lat="48.14911" lon="0.38448">
        <ele>117.3</ele>
        <time>2018-12-25T15:52:53.000Z</time>
      </trkpt>
      <trkpt lat="48.14909" lon="0.38462">
        <ele>119.4</ele>
        <time>2018-12-25T15:53:00.000Z</time>
      </trkpt>
      <trkpt lat="48.14909" lon="0.38477">
        <ele>117.4</ele>
        <time>2018-12-25T15:53:10.000Z</time>
      </trkpt>
      <trkpt lat="48.14912" lon="0.38492">
        <ele>114.7</ele>
        <time>2018-12-25T15:53:14.000Z</time>
      </trkpt>
      <trkpt lat="48.14915" lon="0.38505">
        <ele>110.5</ele>
        <time>2018-12-25T15:53:18.000Z</time>
      </trkpt>
      <trkpt lat="48.14917" lon="0.3852">
        <ele>106.9</ele>
        <time>2018-12-25T15:53:24.000Z</time>
      </trkpt>
      <trkpt lat="48.14918" lon="0.38534">
        <ele>105</ele>
        <time>2018-12-25T15:53:30.000Z</time>
      </trkpt>
      <trkpt lat="48.14919" lon="0.3855">
        <ele>103.7</ele>
        <time>2018-12-25T15:53:37.000Z</time>
      </trkpt>
      <trkpt lat="48.14919" lon="0.38564">
        <ele>103.2</ele>
        <time>2018-12-25T15:53:45.000Z</time>
      </trkpt>
      <trkpt lat="48.14918" lon="0.38577">
        <ele>103</ele>
        <time>2018-12-25T15:53:53.000Z</time>
      </trkpt>
      <trkpt lat="48.14917" lon="0.38591">
        <ele>106.6</ele>
        <time>2018-12-25T15:54:02.000Z</time>
      </trkpt>
      <trkpt lat="48.14917" lon="0.38606">
        <ele>111.7</ele>
        <time>2018-12-25T15:54:10.000Z</time>
      </trkpt>
      <trkpt lat="48.14916" lon="0.38621">
        <ele>112.6</ele>
        <time>2018-12-25T15:54:17.000Z</time>
      </trkpt>
      <trkpt lat="48.14915" lon="0.38636">
        <ele>114.5</ele>
        <time>2018-12-25T15:54:25.000Z</time>
      </trkpt>
      <trkpt lat="48.14915" lon="0.3865">
        <ele>115.5</ele>
        <time>2018-12-25T15:54:31.000Z</time>
      </trkpt>
      <trkpt lat="48.14914" lon="0.38665">
        <ele>117.4</ele>
        <time>2018-12-25T15:54:39.000Z</time>
      </trkpt>
      <trkpt lat="48.14912" lon="0.3868">
        <ele>119.5</ele>
        <time>2018-12-25T15:54:47.000Z</time>
      </trkpt>
      <trkpt lat="48.14914" lon="0.38694">
        <ele>122.4</ele>
        <time>2018-12-25T15:54:55.000Z</time>
      </trkpt>
      <trkpt lat="48.14916" lon="0.38709">
        <ele>125.4</ele>
        <time>2018-12-25T15:55:02.000Z</time>
      </trkpt>
      <trkpt lat="48.14913" lon="0.38723">
        <ele>122.9</ele>
        <time>2018-12-25T15:55:08.000Z</time>
      </trkpt>
      <trkpt lat="48.1491" lon="0.38737">
        <ele>118</ele>
        <time>2018-12-25T15:55:14.000Z</time>
      </trkpt>
      <trkpt lat="48.14912" lon="0.38753">
        <ele>119.1</ele>
        <time>2018-12-25T15:55:21.000Z</time>
      </trkpt>
      <trkpt lat="48.14911" lon="0.38767">
        <ele>119.6</ele>
        <time>2018-12-25T15:55:27.000Z</time>
      </trkpt>
      <trkpt lat="48.14911" lon="0.38782">
        <ele>119.9</ele>
        <time>2018-12-25T15:55:33.000Z</time>
      </trkpt>
      <trkpt lat="48.14909" lon="0.38795">
        <ele>119.9</ele>
        <time>2018-12-25T15:55:39.000Z</time>
      </trkpt>
      <trkpt lat="48.14907" lon="0.3881">
        <ele>120.6</ele>
        <time>2018-12-25T15:55:46.000Z</time>
      </trkpt>
      <trkpt lat="48.14906" lon="0.38824">
        <ele>121.8</ele>
        <time>2018-12-25T15:55:52.000Z</time>
      </trkpt>
      <trkpt lat="48.149" lon="0.38836">
        <ele>117</ele>
        <time>2018-12-25T15:55:58.000Z</time>
      </trkpt>
      <trkpt lat="48.14897" lon="0.38849">
        <ele>113.2</ele>
        <time>2018-12-25T15:56:04.000Z</time>
      </trkpt>
      <trkpt lat="48.14894" lon="0.38862">
        <ele>109.4</ele>
        <time>2018-12-25T15:56:10.000Z</time>
      </trkpt>
      <trkpt lat="48.14894" lon="0.38877">
        <ele>109.1</ele>
        <time>2018-12-25T15:56:17.000Z</time>
      </trkpt>
      <trkpt lat="48.14893" lon="0.38891">
        <ele>108.6</ele>
        <time>2018-12-25T15:56:23.000Z</time>
      </trkpt>
      <trkpt lat="48.14893" lon="0.38906">
        <ele>109.5</ele>
        <time>2018-12-25T15:56:30.000Z</time>
      </trkpt>
      <trkpt lat="48.14891" lon="0.38921">
        <ele>109.7</ele>
        <time>2018-12-25T15:56:37.000Z</time>
      </trkpt>
      <trkpt lat="48.14892" lon="0.38936">
        <ele>110</ele>
        <time>2018-12-25T15:56:44.000Z</time>
      </trkpt>
      <trkpt lat="48.14888" lon="0.38951">
        <ele>106.7</ele>
        <time>2018-12-25T15:56:50.000Z</time>
      </trkpt>
      <trkpt lat="48.14884" lon="0.38965">
        <ele>104.2</ele>
        <time>2018-12-25T15:56:56.000Z</time>
      </trkpt>
      <trkpt lat="48.1488" lon="0.38979">
        <ele>103.1</ele>
        <time>2018-12-25T15:57:02.000Z</time>
      </trkpt>
      <trkpt lat="48.14877" lon="0.38992">
        <ele>101.9</ele>
        <time>2018-12-25T15:57:08.000Z</time>
      </trkpt>
      <trkpt lat="48.14873" lon="0.39004">
        <ele>101.5</ele>
        <time>2018-12-25T15:57:14.000Z</time>
      </trkpt>
      <trkpt lat="48.14868" lon="0.39017">
        <ele>100.7</ele>
        <time>2018-12-25T15:57:20.000Z</time>
      </trkpt>
      <trkpt lat="48.14864" lon="0.3903">
        <ele>99.4</ele>
        <time>2018-12-25T15:57:26.000Z</time>
      </trkpt>
      <trkpt lat="48.14859" lon="0.39043">
        <ele>98.2</ele>
        <time>2018-12-25T15:57:32.000Z</time>
      </trkpt>
      <trkpt lat="48.14855" lon="0.39055">
        <ele>97.5</ele>
        <time>2018-12-25T15:57:38.000Z</time>
      </trkpt>
      <trkpt lat="48.1485" lon="0.39068">
        <ele>97.2</ele>
        <time>2018-12-25T15:57:45.000Z</time>
      </trkpt>
      <trkpt lat="48.14845" lon="0.39082">
        <ele>96.8</ele>
        <time>2018-12-25T15:57:52.000Z</time>
      </trkpt>
      <trkpt lat="48.1484" lon="0.39093">
        <ele>96.9</ele>
        <time>2018-12-25T15:57:58.000Z</time>
      </trkpt>
      <trkpt lat="48.14835" lon="0.39106">
        <ele>98</ele>
        <time>2018-12-25T15:58:05.000Z</time>
      </trkpt>
      <trkpt lat="48.1483" lon="0.39117">
        <ele>100.3</ele>
        <time>2018-12-25T15:58:12.000Z</time>
      </trkpt>
      <trkpt lat="48.14825" lon="0.39129">
        <ele>102.7</ele>
        <time>2018-12-25T15:58:19.000Z</time>
      </trkpt>
      <trkpt lat="48.14819" lon="0.39141">
        <ele>103.4</ele>
        <time>2018-12-25T15:58:26.000Z</time>
      </trkpt>
      <trkpt lat="48.14813" lon="0.39152">
        <ele>103</ele>
        <time>2018-12-25T15:58:32.000Z</time>
      </trkpt>
      <trkpt lat="48.14806" lon="0.39162">
        <ele>101.4</ele>
        <time>2018-12-25T15:58:38.000Z</time>
      </trkpt>
      <trkpt lat="48.14799" lon="0.39171">
        <ele>101.2</ele>
        <time>2018-12-25T15:58:44.000Z</time>
      </trkpt>
      <trkpt lat="48.14792" lon="0.3918">
        <ele>100.1</ele>
        <time>2018-12-25T15:58:50.000Z</time>
      </trkpt>
      <trkpt lat="48.14785" lon="0.39189">
        <ele>98.8</ele>
        <time>2018-12-25T15:58:56.000Z</time>
      </trkpt>
      <trkpt lat="48.14778" lon="0.39198">
        <ele>98.9</ele>
        <time>2018-12-25T15:59:02.000Z</time>
      </trkpt>
      <trkpt lat="48.14772" lon="0.39208">
        <ele>98.7</ele>
        <time>2018-12-25T15:59:08.000Z</time>
      </trkpt>
      <trkpt lat="48.14765" lon="0.39217">
        <ele>98.4</ele>
        <time>2018-12-25T15:59:14.000Z</time>
      </trkpt>
      <trkpt lat="48.14758" lon="0.39226">
        <ele>97.9</ele>
        <time>2018-12-25T15:59:20.000Z</time>
      </trkpt>
      <trkpt lat="48.14751" lon="0.39236">
        <ele>97</ele>
        <time>2018-12-25T15:59:26.000Z</time>
      </trkpt>
      <trkpt lat="48.14745" lon="0.39247">
        <ele>97.4</ele>
        <time>2018-12-25T15:59:33.000Z</time>
      </trkpt>
      <trkpt lat="48.14739" lon="0.39258">
        <ele>98.5</ele>
        <time>2018-12-25T15:59:40.000Z</time>
      </trkpt>
      <trkpt lat="48.14735" lon="0.3927">
        <ele>102</ele>
        <time>2018-12-25T15:59:48.000Z</time>
      </trkpt>
      <trkpt lat="48.14728" lon="0.3928">
        <ele>105</ele>
        <time>2018-12-25T15:59:56.000Z</time>
      </trkpt>
      <trkpt lat="48.14728" lon="0.39294">
        <ele>106.5</ele>
        <time>2018-12-25T16:00:06.000Z</time>
      </trkpt>
      <trkpt lat="48.14734" lon="0.39305">
        <ele>106.7</ele>
        <time>2018-12-25T16:00:14.000Z</time>
      </trkpt>
      <trkpt lat="48.14739" lon="0.39318">
        <ele>106.9</ele>
        <time>2018-12-25T16:00:24.000Z</time>
      </trkpt>
      <trkpt lat="48.14745" lon="0.39329">
        <ele>108.7</ele>
        <time>2018-12-25T16:00:32.000Z</time>
      </trkpt>
      <trkpt lat="48.14752" lon="0.39341">
        <ele>110.4</ele>
        <time>2018-12-25T16:00:40.000Z</time>
      </trkpt>
      <trkpt lat="48.1476" lon="0.39351">
        <ele>114</ele>
        <time>2018-12-25T16:00:48.000Z</time>
      </trkpt>
      <trkpt lat="48.14766" lon="0.39362">
        <ele>118.5</ele>
        <time>2018-12-25T16:00:56.000Z</time>
      </trkpt>
      <trkpt lat="48.14773" lon="0.39373">
        <ele>124.5</ele>
        <time>2018-12-25T16:01:05.000Z</time>
      </trkpt>
      <trkpt lat="48.14779" lon="0.39384">
        <ele>126.7</ele>
        <time>2018-12-25T16:01:12.000Z</time>
      </trkpt>
      <trkpt lat="48.14786" lon="0.39395">
        <ele>129</ele>
        <time>2018-12-25T16:01:19.000Z</time>
      </trkpt>
      <trkpt lat="48.14793" lon="0.39403">
        <ele>128</ele>
        <time>2018-12-25T16:01:25.000Z</time>
      </trkpt>
      <trkpt lat="48.14802" lon="0.39409">
        <ele>126.5</ele>
        <time>2018-12-25T16:01:32.000Z</time>
      </trkpt>
      <trkpt lat="48.14809" lon="0.39417">
        <ele>127</ele>
        <time>2018-12-25T16:01:39.000Z</time>
      </trkpt>
      <trkpt lat="48.14816" lon="0.39426">
        <ele>131.1</ele>
        <time>2018-12-25T16:01:47.000Z</time>
      </trkpt>
      <trkpt lat="48.14822" lon="0.39436">
        <ele>133.1</ele>
        <time>2018-12-25T16:01:55.000Z</time>
      </trkpt>
      <trkpt lat="48.1483" lon="0.39444">
        <ele>133.9</ele>
        <time>2018-12-25T16:02:03.000Z</time>
      </trkpt>
      <trkpt lat="48.14839" lon="0.39447">
        <ele>135.5</ele>
        <time>2018-12-25T16:02:10.000Z</time>
      </trkpt>
      <trkpt lat="48.14848" lon="0.3945">
        <ele>131.5</ele>
        <time>2018-12-25T16:02:15.000Z</time>
      </trkpt>
      <trkpt lat="48.14857" lon="0.39455">
        <ele>130.2</ele>
        <time>2018-12-25T16:02:23.000Z</time>
      </trkpt>
      <trkpt lat="48.14866" lon="0.39463">
        <ele>127.2</ele>
        <time>2018-12-25T16:02:29.000Z</time>
      </trkpt>
      <trkpt lat="48.14875" lon="0.3947">
        <ele>125.7</ele>
        <time>2018-12-25T16:02:36.000Z</time>
      </trkpt>
      <trkpt lat="48.14883" lon="0.39476">
        <ele>126.6</ele>
        <time>2018-12-25T16:02:43.000Z</time>
      </trkpt>
      <trkpt lat="48.14891" lon="0.39484">
        <ele>132.4</ele>
        <time>2018-12-25T16:02:53.000Z</time>
      </trkpt>
      <trkpt lat="48.14899" lon="0.39493">
        <ele>136.7</ele>
        <time>2018-12-25T16:03:02.000Z</time>
      </trkpt>
      <trkpt lat="48.14907" lon="0.39501">
        <ele>137.9</ele>
        <time>2018-12-25T16:03:10.000Z</time>
      </trkpt>
      <trkpt lat="48.14914" lon="0.39509">
        <ele>139.7</ele>
        <time>2018-12-25T16:03:18.000Z</time>
      </trkpt>
      <trkpt lat="48.14922" lon="0.39519">
        <ele>139.8</ele>
        <time>2018-12-25T16:03:25.000Z</time>
      </trkpt>
      <trkpt lat="48.14928" lon="0.3953">
        <ele>139.9</ele>
        <time>2018-12-25T16:03:31.000Z</time>
      </trkpt>
      <trkpt lat="48.14935" lon="0.39539">
        <ele>140.1</ele>
        <time>2018-12-25T16:03:37.000Z</time>
      </trkpt>
      <trkpt lat="48.14943" lon="0.39547">
        <ele>138.2</ele>
        <time>2018-12-25T16:03:44.000Z</time>
      </trkpt>
      <trkpt lat="48.14951" lon="0.39556">
        <ele>136.9</ele>
        <time>2018-12-25T16:03:52.000Z</time>
      </trkpt>
      <trkpt lat="48.14957" lon="0.39566">
        <ele>136.4</ele>
        <time>2018-12-25T16:03:58.000Z</time>
      </trkpt>
      <trkpt lat="48.14962" lon="0.39579">
        <ele>138.6</ele>
        <time>2018-12-25T16:04:07.000Z</time>
      </trkpt>
      <trkpt lat="48.14969" lon="0.39588">
        <ele>136.5</ele>
        <time>2018-12-25T16:04:11.000Z</time>
      </trkpt>
      <trkpt lat="48.14975" lon="0.39599">
        <ele>134.4</ele>
        <time>2018-12-25T16:04:18.000Z</time>
      </trkpt>
      <trkpt lat="48.14979" lon="0.39611">
        <ele>128.4</ele>
        <time>2018-12-25T16:04:24.000Z</time>
      </trkpt>
      <trkpt lat="48.14984" lon="0.39623">
        <ele>126</ele>
        <time>2018-12-25T16:04:35.000Z</time>
      </trkpt>
      <trkpt lat="48.14987" lon="0.39637">
        <ele>124.9</ele>
        <time>2018-12-25T16:04:43.000Z</time>
      </trkpt>
      <trkpt lat="48.1499" lon="0.39651">
        <ele>125.4</ele>
        <time>2018-12-25T16:04:57.000Z</time>
      </trkpt>
      <trkpt lat="48.1499" lon="0.39664">
        <ele>127.5</ele>
        <time>2018-12-25T16:05:05.000Z</time>
      </trkpt>
      <trkpt lat="48.1499" lon="0.39678">
        <ele>129.9</ele>
        <time>2018-12-25T16:05:14.000Z</time>
      </trkpt>
      <trkpt lat="48.14991" lon="0.39692">
        <ele>134</ele>
        <time>2018-12-25T16:05:23.000Z</time>
      </trkpt>
      <trkpt lat="48.14991" lon="0.39705">
        <ele>139.8</ele>
        <time>2018-12-25T16:05:33.000Z</time>
      </trkpt>
      <trkpt lat="48.14991" lon="0.3972">
        <ele>147.4</ele>
        <time>2018-12-25T16:05:43.000Z</time>
      </trkpt>
      <trkpt lat="48.14991" lon="0.39734">
        <ele>151.8</ele>
        <time>2018-12-25T16:05:53.000Z</time>
      </trkpt>
      <trkpt lat="48.14993" lon="0.39747">
        <ele>155.3</ele>
        <time>2018-12-25T16:06:01.000Z</time>
      </trkpt>
      <trkpt lat="48.14996" lon="0.3976">
        <ele>156.6</ele>
        <time>2018-12-25T16:06:08.000Z</time>
      </trkpt>
      <trkpt lat="48.15" lon="0.39774">
        <ele>156.6</ele>
        <time>2018-12-25T16:06:17.000Z</time>
      </trkpt>
      <trkpt lat="48.15" lon="0.39788">
        <ele>158.9</ele>
        <time>2018-12-25T16:06:26.000Z</time>
      </trkpt>
      <trkpt lat="48.15001" lon="0.39802">
        <ele>157.4</ele>
        <time>2018-12-25T16:06:33.000Z</time>
      </trkpt>
      <trkpt lat="48.15006" lon="0.39815">
        <ele>156.4</ele>
        <time>2018-12-25T16:06:43.000Z</time>
      </trkpt>
      <trkpt lat="48.15004" lon="0.39829">
        <ele>152</ele>
        <time>2018-12-25T16:06:51.000Z</time>
      </trkpt>
      <trkpt lat="48.15002" lon="0.39841">
        <ele>146.5</ele>
        <time>2018-12-25T16:06:58.000Z</time>
      </trkpt>
      <trkpt lat="48.15" lon="0.39856">
        <ele>145.3</ele>
        <time>2018-12-25T16:07:07.000Z</time>
      </trkpt>
      <trkpt lat="48.15004" lon="0.39867">
        <ele>148.4</ele>
        <time>2018-12-25T16:07:15.000Z</time>
      </trkpt>
      <trkpt lat="48.15011" lon="0.3988">
        <ele>149.6</ele>
        <time>2018-12-25T16:07:23.000Z</time>
      </trkpt>
      <trkpt lat="48.15014" lon="0.39893">
        <ele>151</ele>
        <time>2018-12-25T16:07:31.000Z</time>
      </trkpt>
      <trkpt lat="48.15016" lon="0.39907">
        <ele>151.7</ele>
        <time>2018-12-25T16:07:40.000Z</time>
      </trkpt>
      <trkpt lat="48.15016" lon="0.39921">
        <ele>147.3</ele>
        <time>2018-12-25T16:07:48.000Z</time>
      </trkpt>
      <trkpt lat="48.15018" lon="0.39936">
        <ele>146</ele>
        <time>2018-12-25T16:07:56.000Z</time>
      </trkpt>
      <trkpt lat="48.15018" lon="0.3995">
        <ele>144.4</ele>
        <time>2018-12-25T16:08:03.000Z</time>
      </trkpt>
      <trkpt lat="48.1502" lon="0.39965">
        <ele>144.5</ele>
        <time>2018-12-25T16:08:11.000Z</time>
      </trkpt>
      <trkpt lat="48.15023" lon="0.39979">
        <ele>144.3</ele>
        <time>2018-12-25T16:08:18.000Z</time>
      </trkpt>
      <trkpt lat="48.15026" lon="0.39993">
        <ele>143.6</ele>
        <time>2018-12-25T16:08:26.000Z</time>
      </trkpt>
      <trkpt lat="48.15029" lon="0.40007">
        <ele>143.9</ele>
        <time>2018-12-25T16:08:33.000Z</time>
      </trkpt>
      <trkpt lat="48.1503" lon="0.40022">
        <ele>143.4</ele>
        <time>2018-12-25T16:08:40.000Z</time>
      </trkpt>
      <trkpt lat="48.1503" lon="0.40036">
        <ele>143.5</ele>
        <time>2018-12-25T16:08:46.000Z</time>
      </trkpt>
      <trkpt lat="48.15031" lon="0.4005">
        <ele>144.4</ele>
        <time>2018-12-25T16:08:51.000Z</time>
      </trkpt>
      <trkpt lat="48.15031" lon="0.40065">
        <ele>145.2</ele>
        <time>2018-12-25T16:08:56.000Z</time>
      </trkpt>
      <trkpt lat="48.15033" lon="0.4008">
        <ele>144.9</ele>
        <time>2018-12-25T16:09:01.000Z</time>
      </trkpt>
      <trkpt lat="48.15037" lon="0.40094">
        <ele>141.5</ele>
        <time>2018-12-25T16:09:06.000Z</time>
      </trkpt>
      <trkpt lat="48.15041" lon="0.40106">
        <ele>138.6</ele>
        <time>2018-12-25T16:09:11.000Z</time>
      </trkpt>
      <trkpt lat="48.15044" lon="0.40121">
        <ele>137.6</ele>
        <time>2018-12-25T16:09:17.000Z</time>
      </trkpt>
      <trkpt lat="48.15047" lon="0.40135">
        <ele>136.9</ele>
        <time>2018-12-25T16:09:23.000Z</time>
      </trkpt>
      <trkpt lat="48.15051" lon="0.40148">
        <ele>136.3</ele>
        <time>2018-12-25T16:09:29.000Z</time>
      </trkpt>
      <trkpt lat="48.15055" lon="0.40161">
        <ele>135.7</ele>
        <time>2018-12-25T16:09:36.000Z</time>
      </trkpt>
      <trkpt lat="48.15059" lon="0.40175">
        <ele>134.8</ele>
        <time>2018-12-25T16:09:43.000Z</time>
      </trkpt>
      <trkpt lat="48.15062" lon="0.4019">
        <ele>134.9</ele>
        <time>2018-12-25T16:09:51.000Z</time>
      </trkpt>
      <trkpt lat="48.15065" lon="0.40203">
        <ele>135.3</ele>
        <time>2018-12-25T16:09:58.000Z</time>
      </trkpt>
      <trkpt lat="48.15068" lon="0.40217">
        <ele>137</ele>
        <time>2018-12-25T16:10:07.000Z</time>
      </trkpt>
      <trkpt lat="48.15073" lon="0.4023">
        <ele>137.9</ele>
        <time>2018-12-25T16:10:15.000Z</time>
      </trkpt>
      <trkpt lat="48.15076" lon="0.40243">
        <ele>139.1</ele>
        <time>2018-12-25T16:10:23.000Z</time>
      </trkpt>
      <trkpt lat="48.15072" lon="0.40257">
        <ele>140.7</ele>
        <time>2018-12-25T16:10:32.000Z</time>
      </trkpt>
      <trkpt lat="48.15066" lon="0.4027">
        <ele>141.6</ele>
        <time>2018-12-25T16:10:39.000Z</time>
      </trkpt>
      <trkpt lat="48.15059" lon="0.4028">
        <ele>141.5</ele>
        <time>2018-12-25T16:10:46.000Z</time>
      </trkpt>
      <trkpt lat="48.15051" lon="0.40289">
        <ele>138.8</ele>
        <time>2018-12-25T16:10:52.000Z</time>
      </trkpt>
      <trkpt lat="48.15044" lon="0.40298">
        <ele>136.8</ele>
        <time>2018-12-25T16:10:58.000Z</time>
      </trkpt>
      <trkpt lat="48.15036" lon="0.40308">
        <ele>136.2</ele>
        <time>2018-12-25T16:11:05.000Z</time>
      </trkpt>
      <trkpt lat="48.1503" lon="0.40318">
        <ele>135.2</ele>
        <time>2018-12-25T16:11:11.000Z</time>
      </trkpt>
      <trkpt lat="48.15023" lon="0.40326">
        <ele>133.5</ele>
        <time>2018-12-25T16:11:17.000Z</time>
      </trkpt>
      <trkpt lat="48.15015" lon="0.40335">
        <ele>132.2</ele>
        <time>2018-12-25T16:11:23.000Z</time>
      </trkpt>
      <trkpt lat="48.15009" lon="0.40345">
        <ele>131</ele>
        <time>2018-12-25T16:11:29.000Z</time>
      </trkpt>
      <trkpt lat="48.15002" lon="0.40356">
        <ele>130.9</ele>
        <time>2018-12-25T16:11:36.000Z</time>
      </trkpt>
      <trkpt lat="48.14995" lon="0.40366">
        <ele>130.3</ele>
        <time>2018-12-25T16:11:43.000Z</time>
      </trkpt>
      <trkpt lat="48.14991" lon="0.4038">
        <ele>132.2</ele>
        <time>2018-12-25T16:11:52.000Z</time>
      </trkpt>
      <trkpt lat="48.14983" lon="0.40391">
        <ele>131.7</ele>
        <time>2018-12-25T16:12:01.000Z</time>
      </trkpt>
      <trkpt lat="48.14975" lon="0.40397">
        <ele>126.3</ele>
        <time>2018-12-25T16:12:06.000Z</time>
      </trkpt>
      <trkpt lat="48.14972" lon="0.4041">
        <ele>125.9</ele>
        <time>2018-12-25T16:12:14.000Z</time>
      </trkpt>
      <trkpt lat="48.14967" lon="0.40424">
        <ele>122.4</ele>
        <time>2018-12-25T16:12:21.000Z</time>
      </trkpt>
      <trkpt lat="48.14964" lon="0.40437">
        <ele>120.9</ele>
        <time>2018-12-25T16:12:27.000Z</time>
      </trkpt>
      <trkpt lat="48.1496" lon="0.4045">
        <ele>119.6</ele>
        <time>2018-12-25T16:12:33.000Z</time>
      </trkpt>
      <trkpt lat="48.14958" lon="0.40463">
        <ele>118.8</ele>
        <time>2018-12-25T16:12:39.000Z</time>
      </trkpt>
      <trkpt lat="48.14956" lon="0.40477">
        <ele>118</ele>
        <time>2018-12-25T16:12:46.000Z</time>
      </trkpt>
      <trkpt lat="48.14955" lon="0.40491">
        <ele>116.6</ele>
        <time>2018-12-25T16:12:55.000Z</time>
      </trkpt>
      <trkpt lat="48.14954" lon="0.40506">
        <ele>121.3</ele>
        <time>2018-12-25T16:13:06.000Z</time>
      </trkpt>
      <trkpt lat="48.14952" lon="0.4052">
        <ele>125.3</ele>
        <time>2018-12-25T16:13:17.000Z</time>
      </trkpt>
      <trkpt lat="48.14949" lon="0.40534">
        <ele>128.2</ele>
        <time>2018-12-25T16:13:26.000Z</time>
      </trkpt>
      <trkpt lat="48.14945" lon="0.40549">
        <ele>131.8</ele>
        <time>2018-12-25T16:13:34.000Z</time>
      </trkpt>
      <trkpt lat="48.14942" lon="0.40562">
        <ele>134</ele>
        <time>2018-12-25T16:13:42.000Z</time>
      </trkpt>
      <trkpt lat="48.14938" lon="0.40574">
        <ele>137</ele>
        <time>2018-12-25T16:13:52.000Z</time>
      </trkpt>
      <trkpt lat="48.14934" lon="0.40587">
        <ele>140.1</ele>
        <time>2018-12-25T16:14:06.000Z</time>
      </trkpt>
      <trkpt lat="48.14928" lon="0.40597">
        <ele>142.5</ele>
        <time>2018-12-25T16:14:13.000Z</time>
      </trkpt>
      <trkpt lat="48.14921" lon="0.40606">
        <ele>146.6</ele>
        <time>2018-12-25T16:14:21.000Z</time>
      </trkpt>
      <trkpt lat="48.14912" lon="0.40612">
        <ele>147.7</ele>
        <time>2018-12-25T16:14:26.000Z</time>
      </trkpt>
      <trkpt lat="48.14903" lon="0.40616">
        <ele>147.2</ele>
        <time>2018-12-25T16:14:32.000Z</time>
      </trkpt>
      <trkpt lat="48.14893" lon="0.40621">
        <ele>149.1</ele>
        <time>2018-12-25T16:14:38.000Z</time>
      </trkpt>
      <trkpt lat="48.14884" lon="0.40625">
        <ele>149.4</ele>
        <time>2018-12-25T16:14:43.000Z</time>
      </trkpt>
      <trkpt lat="48.14875" lon="0.40625">
        <ele>148.2</ele>
        <time>2018-12-25T16:14:48.000Z</time>
      </trkpt>
      <trkpt lat="48.14865" lon="0.40629">
        <ele>149.8</ele>
        <time>2018-12-25T16:14:54.000Z</time>
      </trkpt>
      <trkpt lat="48.14856" lon="0.40632">
        <ele>148.6</ele>
        <time>2018-12-25T16:14:59.000Z</time>
      </trkpt>
      <trkpt lat="48.14846" lon="0.40634">
        <ele>145.7</ele>
        <time>2018-12-25T16:15:05.000Z</time>
      </trkpt>
      <trkpt lat="48.14836" lon="0.40632">
        <ele>141.2</ele>
        <time>2018-12-25T16:15:11.000Z</time>
      </trkpt>
      <trkpt lat="48.14827" lon="0.4063">
        <ele>135.8</ele>
        <time>2018-12-25T16:15:16.000Z</time>
      </trkpt>
      <trkpt lat="48.14817" lon="0.40628">
        <ele>127.5</ele>
        <time>2018-12-25T16:15:22.000Z</time>
      </trkpt>
      <trkpt lat="48.14808" lon="0.40632">
        <ele>126</ele>
        <time>2018-12-25T16:15:29.000Z</time>
      </trkpt>
      <trkpt lat="48.14798" lon="0.40637">
        <ele>126.3</ele>
        <time>2018-12-25T16:15:36.000Z</time>
      </trkpt>
      <trkpt lat="48.14788" lon="0.40641">
        <ele>125.7</ele>
        <time>2018-12-25T16:15:43.000Z</time>
      </trkpt>
      <trkpt lat="48.14779" lon="0.40645">
        <ele>125.4</ele>
        <time>2018-12-25T16:15:49.000Z</time>
      </trkpt>
      <trkpt lat="48.1477" lon="0.4065">
        <ele>124.2</ele>
        <time>2018-12-25T16:15:55.000Z</time>
      </trkpt>
      <trkpt lat="48.14761" lon="0.40654">
        <ele>123.2</ele>
        <time>2018-12-25T16:16:01.000Z</time>
      </trkpt>
      <trkpt lat="48.14752" lon="0.40659">
        <ele>122.3</ele>
        <time>2018-12-25T16:16:07.000Z</time>
      </trkpt>
      <trkpt lat="48.14742" lon="0.40663">
        <ele>115.8</ele>
        <time>2018-12-25T16:16:12.000Z</time>
      </trkpt>
      <trkpt lat="48.14731" lon="0.40667">
        <ele>110.9</ele>
        <time>2018-12-25T16:16:17.000Z</time>
      </trkpt>
      <trkpt lat="48.14721" lon="0.40673">
        <ele>107.5</ele>
        <time>2018-12-25T16:16:23.000Z</time>
      </trkpt>
      <trkpt lat="48.14712" lon="0.40679">
        <ele>104.7</ele>
        <time>2018-12-25T16:16:29.000Z</time>
      </trkpt>
      <trkpt lat="48.14703" lon="0.40685">
        <ele>102.9</ele>
        <time>2018-12-25T16:16:35.000Z</time>
      </trkpt>
      <trkpt lat="48.14695" lon="0.40692">
        <ele>101.7</ele>
        <time>2018-12-25T16:16:41.000Z</time>
      </trkpt>
      <trkpt lat="48.14687" lon="0.40699">
        <ele>100.7</ele>
        <time>2018-12-25T16:16:47.000Z</time>
      </trkpt>
      <trkpt lat="48.14679" lon="0.40707">
        <ele>99.2</ele>
        <time>2018-12-25T16:16:53.000Z</time>
      </trkpt>
      <trkpt lat="48.14671" lon="0.40714">
        <ele>98</ele>
        <time>2018-12-25T16:16:59.000Z</time>
      </trkpt>
      <trkpt lat="48.14663" lon="0.40721">
        <ele>97.2</ele>
        <time>2018-12-25T16:17:05.000Z</time>
      </trkpt>
      <trkpt lat="48.14654" lon="0.40727">
        <ele>96.2</ele>
        <time>2018-12-25T16:17:12.000Z</time>
      </trkpt>
      <trkpt lat="48.14645" lon="0.40734">
        <ele>95.2</ele>
        <time>2018-12-25T16:17:19.000Z</time>
      </trkpt>
      <trkpt lat="48.14636" lon="0.40738">
        <ele>96.1</ele>
        <time>2018-12-25T16:17:26.000Z</time>
      </trkpt>
      <trkpt lat="48.14627" lon="0.40742">
        <ele>97.4</ele>
        <time>2018-12-25T16:17:33.000Z</time>
      </trkpt>
      <trkpt lat="48.14618" lon="0.40748">
        <ele>98.4</ele>
        <time>2018-12-25T16:17:40.000Z</time>
      </trkpt>
      <trkpt lat="48.1461" lon="0.40755">
        <ele>99.5</ele>
        <time>2018-12-25T16:17:47.000Z</time>
      </trkpt>
      <trkpt lat="48.14602" lon="0.40762">
        <ele>100.1</ele>
        <time>2018-12-25T16:17:54.000Z</time>
      </trkpt>
      <trkpt lat="48.14593" lon="0.40769">
        <ele>99.9</ele>
        <time>2018-12-25T16:18:01.000Z</time>
      </trkpt>
      <trkpt lat="48.14585" lon="0.40777">
        <ele>100.4</ele>
        <time>2018-12-25T16:18:08.000Z</time>
      </trkpt>
      <trkpt lat="48.14578" lon="0.40786">
        <ele>101.9</ele>
        <time>2018-12-25T16:18:15.000Z</time>
      </trkpt>
      <trkpt lat="48.1457" lon="0.40795">
        <ele>105.1</ele>
        <time>2018-12-25T16:18:23.000Z</time>
      </trkpt>
      <trkpt lat="48.14562" lon="0.408">
        <ele>108.2</ele>
        <time>2018-12-25T16:18:31.000Z</time>
      </trkpt>
      <trkpt lat="48.14554" lon="0.40807">
        <ele>109.8</ele>
        <time>2018-12-25T16:18:38.000Z</time>
      </trkpt>
      <trkpt lat="48.14545" lon="0.40817">
        <ele>112.2</ele>
        <time>2018-12-25T16:18:46.000Z</time>
      </trkpt>
      <trkpt lat="48.14536" lon="0.40824">
        <ele>110.1</ele>
        <time>2018-12-25T16:18:52.000Z</time>
      </trkpt>
      <trkpt lat="48.14527" lon="0.4083">
        <ele>108.8</ele>
        <time>2018-12-25T16:18:58.000Z</time>
      </trkpt>
      <trkpt lat="48.14518" lon="0.40835">
        <ele>107.6</ele>
        <time>2018-12-25T16:19:04.000Z</time>
      </trkpt>
      <trkpt lat="48.1451" lon="0.4084">
        <ele>107.2</ele>
        <time>2018-12-25T16:19:10.000Z</time>
      </trkpt>
      <trkpt lat="48.14502" lon="0.40847">
        <ele>106.7</ele>
        <time>2018-12-25T16:19:16.000Z</time>
      </trkpt>
      <trkpt lat="48.14493" lon="0.40853">
        <ele>106.4</ele>
        <time>2018-12-25T16:19:22.000Z</time>
      </trkpt>
      <trkpt lat="48.14484" lon="0.40858">
        <ele>106.6</ele>
        <time>2018-12-25T16:19:29.000Z</time>
      </trkpt>
      <trkpt lat="48.14473" lon="0.40861">
        <ele>107.2</ele>
        <time>2018-12-25T16:19:37.000Z</time>
      </trkpt>
      <trkpt lat="48.14463" lon="0.40862">
        <ele>107.6</ele>
        <time>2018-12-25T16:19:45.000Z</time>
      </trkpt>
      <trkpt lat="48.14454" lon="0.40864">
        <ele>108.2</ele>
        <time>2018-12-25T16:19:52.000Z</time>
      </trkpt>
      <trkpt lat="48.14444" lon="0.40862">
        <ele>110</ele>
        <time>2018-12-25T16:20:01.000Z</time>
      </trkpt>
      <trkpt lat="48.14434" lon="0.40859">
        <ele>111.6</ele>
        <time>2018-12-25T16:20:09.000Z</time>
      </trkpt>
      <trkpt lat="48.14425" lon="0.40858">
        <ele>113.8</ele>
        <time>2018-12-25T16:20:17.000Z</time>
      </trkpt>
      <trkpt lat="48.14415" lon="0.40857">
        <ele>115.8</ele>
        <time>2018-12-25T16:20:25.000Z</time>
      </trkpt>
      <trkpt lat="48.14405" lon="0.40858">
        <ele>118.2</ele>
        <time>2018-12-25T16:20:33.000Z</time>
      </trkpt>
      <trkpt lat="48.14396" lon="0.40857">
        <ele>117.2</ele>
        <time>2018-12-25T16:20:39.000Z</time>
      </trkpt>
      <trkpt lat="48.14387" lon="0.40859">
        <ele>118.5</ele>
        <time>2018-12-25T16:20:47.000Z</time>
      </trkpt>
      <trkpt lat="48.14378" lon="0.40861">
        <ele>121.1</ele>
        <time>2018-12-25T16:20:55.000Z</time>
      </trkpt>
      <trkpt lat="48.14369" lon="0.40863">
        <ele>121.9</ele>
        <time>2018-12-25T16:21:02.000Z</time>
      </trkpt>
      <trkpt lat="48.1436" lon="0.40865">
        <ele>123.1</ele>
        <time>2018-12-25T16:21:09.000Z</time>
      </trkpt>
      <trkpt lat="48.1435" lon="0.40865">
        <ele>126.5</ele>
        <time>2018-12-25T16:21:17.000Z</time>
      </trkpt>
      <trkpt lat="48.1434" lon="0.40864">
        <ele>127.6</ele>
        <time>2018-12-25T16:21:25.000Z</time>
      </trkpt>
      <trkpt lat="48.14331" lon="0.40865">
        <ele>128.6</ele>
        <time>2018-12-25T16:21:31.000Z</time>
      </trkpt>
      <trkpt lat="48.14321" lon="0.40868">
        <ele>127.9</ele>
        <time>2018-12-25T16:21:37.000Z</time>
      </trkpt>
      <trkpt lat="48.14311" lon="0.4087">
        <ele>124.2</ele>
        <time>2018-12-25T16:21:43.000Z</time>
      </trkpt>
      <trkpt lat="48.143" lon="0.40874">
        <ele>120</ele>
        <time>2018-12-25T16:21:49.000Z</time>
      </trkpt>
      <trkpt lat="48.14291" lon="0.40878">
        <ele>117.6</ele>
        <time>2018-12-25T16:21:55.000Z</time>
      </trkpt>
      <trkpt lat="48.14281" lon="0.4088">
        <ele>115.4</ele>
        <time>2018-12-25T16:22:01.000Z</time>
      </trkpt>
      <trkpt lat="48.14271" lon="0.40881">
        <ele>114.1</ele>
        <time>2018-12-25T16:22:07.000Z</time>
      </trkpt>
      <trkpt lat="48.14262" lon="0.40884">
        <ele>115.1</ele>
        <time>2018-12-25T16:22:14.000Z</time>
      </trkpt>
      <trkpt lat="48.14252" lon="0.40888">
        <ele>114.9</ele>
        <time>2018-12-25T16:22:21.000Z</time>
      </trkpt>
      <trkpt lat="48.14243" lon="0.40893">
        <ele>116.7</ele>
        <time>2018-12-25T16:22:28.000Z</time>
      </trkpt>
      <trkpt lat="48.14235" lon="0.40898">
        <ele>116.4</ele>
        <time>2018-12-25T16:22:38.000Z</time>
      </trkpt>
      <trkpt lat="48.14227" lon="0.40905">
        <ele>115.1</ele>
        <time>2018-12-25T16:22:44.000Z</time>
      </trkpt>
      <trkpt lat="48.14218" lon="0.40912">
        <ele>113.5</ele>
        <time>2018-12-25T16:22:51.000Z</time>
      </trkpt>
      <trkpt lat="48.1421" lon="0.40917">
        <ele>110</ele>
        <time>2018-12-25T16:22:57.000Z</time>
      </trkpt>
      <trkpt lat="48.14201" lon="0.40925">
        <ele>109.3</ele>
        <time>2018-12-25T16:23:04.000Z</time>
      </trkpt>
      <trkpt lat="48.14193" lon="0.40933">
        <ele>107.7</ele>
        <time>2018-12-25T16:23:11.000Z</time>
      </trkpt>
      <trkpt lat="48.14184" lon="0.40942">
        <ele>105.3</ele>
        <time>2018-12-25T16:23:17.000Z</time>
      </trkpt>
      <trkpt lat="48.14175" lon="0.40948">
        <ele>104.2</ele>
        <time>2018-12-25T16:23:24.000Z</time>
      </trkpt>
      <trkpt lat="48.14166" lon="0.40955">
        <ele>103.4</ele>
        <time>2018-12-25T16:23:30.000Z</time>
      </trkpt>
      <trkpt lat="48.14158" lon="0.40958">
        <ele>103.9</ele>
        <time>2018-12-25T16:23:36.000Z</time>
      </trkpt>
      <trkpt lat="48.14149" lon="0.40963">
        <ele>105.2</ele>
        <time>2018-12-25T16:23:42.000Z</time>
      </trkpt>
      <trkpt lat="48.1414" lon="0.40968">
        <ele>109.7</ele>
        <time>2018-12-25T16:23:49.000Z</time>
      </trkpt>
      <trkpt lat="48.1413" lon="0.40971">
        <ele>112</ele>
        <time>2018-12-25T16:23:56.000Z</time>
      </trkpt>
      <trkpt lat="48.14121" lon="0.40975">
        <ele>113.2</ele>
        <time>2018-12-25T16:24:04.000Z</time>
      </trkpt>
      <trkpt lat="48.14112" lon="0.40978">
        <ele>112.6</ele>
        <time>2018-12-25T16:24:10.000Z</time>
      </trkpt>
      <trkpt lat="48.14102" lon="0.4098">
        <ele>111.9</ele>
        <time>2018-12-25T16:24:16.000Z</time>
      </trkpt>
      <trkpt lat="48.14092" lon="0.4098">
        <ele>113</ele>
        <time>2018-12-25T16:24:24.000Z</time>
      </trkpt>
      <trkpt lat="48.14084" lon="0.40978">
        <ele>113.3</ele>
        <time>2018-12-25T16:24:31.000Z</time>
      </trkpt>
      <trkpt lat="48.14074" lon="0.40975">
        <ele>112.5</ele>
        <time>2018-12-25T16:24:38.000Z</time>
      </trkpt>
      <trkpt lat="48.14064" lon="0.40974">
        <ele>112</ele>
        <time>2018-12-25T16:24:55.000Z</time>
      </trkpt>
      <trkpt lat="48.14055" lon="0.40974">
        <ele>113.2</ele>
        <time>2018-12-25T16:25:02.000Z</time>
      </trkpt>
      <trkpt lat="48.14045" lon="0.40973">
        <ele>115.6</ele>
        <time>2018-12-25T16:25:10.000Z</time>
      </trkpt>
      <trkpt lat="48.14036" lon="0.40974">
        <ele>120.8</ele>
        <time>2018-12-25T16:25:20.000Z</time>
      </trkpt>
      <trkpt lat="48.14027" lon="0.40976">
        <ele>130</ele>
        <time>2018-12-25T16:25:32.000Z</time>
      </trkpt>
      <trkpt lat="48.14017" lon="0.40976">
        <ele>134.4</ele>
        <time>2018-12-25T16:25:41.000Z</time>
      </trkpt>
      <trkpt lat="48.14007" lon="0.40975">
        <ele>135.7</ele>
        <time>2018-12-25T16:25:49.000Z</time>
      </trkpt>
      <trkpt lat="48.13997" lon="0.40977">
        <ele>137.2</ele>
        <time>2018-12-25T16:26:00.000Z</time>
      </trkpt>
      <trkpt lat="48.13988" lon="0.40978">
        <ele>139.1</ele>
        <time>2018-12-25T16:26:08.000Z</time>
      </trkpt>
      <trkpt lat="48.13979" lon="0.40978">
        <ele>141.9</ele>
        <time>2018-12-25T16:26:16.000Z</time>
      </trkpt>
      <trkpt lat="48.13968" lon="0.40977">
        <ele>144.9</ele>
        <time>2018-12-25T16:26:23.000Z</time>
      </trkpt>
      <trkpt lat="48.13959" lon="0.40978">
        <ele>148</ele>
        <time>2018-12-25T16:26:30.000Z</time>
      </trkpt>
      <trkpt lat="48.13949" lon="0.40977">
        <ele>149.4</ele>
        <time>2018-12-25T16:26:38.000Z</time>
      </trkpt>
      <trkpt lat="48.1394" lon="0.4098">
        <ele>149.5</ele>
        <time>2018-12-25T16:26:46.000Z</time>
      </trkpt>
      <trkpt lat="48.13931" lon="0.40974">
        <ele>150.8</ele>
        <time>2018-12-25T16:26:57.000Z</time>
      </trkpt>
      <trkpt lat="48.13925" lon="0.40962">
        <ele>152.9</ele>
        <time>2018-12-25T16:27:05.000Z</time>
      </trkpt>
      <trkpt lat="48.13922" lon="0.40949">
        <ele>154.9</ele>
        <time>2018-12-25T16:27:12.000Z</time>
      </trkpt>
      <trkpt lat="48.13917" lon="0.40936">
        <ele>156.5</ele>
        <time>2018-12-25T16:27:20.000Z</time>
      </trkpt>
      <trkpt lat="48.13913" lon="0.40923">
        <ele>152.4</ele>
        <time>2018-12-25T16:27:27.000Z</time>
      </trkpt>
      <trkpt lat="48.13909" lon="0.40909">
        <ele>145.3</ele>
        <time>2018-12-25T16:27:33.000Z</time>
      </trkpt>
      <trkpt lat="48.13905" lon="0.40897">
        <ele>142.4</ele>
        <time>2018-12-25T16:27:41.000Z</time>
      </trkpt>
      <trkpt lat="48.13902" lon="0.40884">
        <ele>139.1</ele>
        <time>2018-12-25T16:27:49.000Z</time>
      </trkpt>
      <trkpt lat="48.139" lon="0.40871">
        <ele>135.9</ele>
        <time>2018-12-25T16:27:57.000Z</time>
      </trkpt>
      <trkpt lat="48.13892" lon="0.40859">
        <ele>135.2</ele>
        <time>2018-12-25T16:28:05.000Z</time>
      </trkpt>
      <trkpt lat="48.13887" lon="0.40847">
        <ele>136.5</ele>
        <time>2018-12-25T16:28:13.000Z</time>
      </trkpt>
      <trkpt lat="48.1388" lon="0.40838">
        <ele>131.2</ele>
        <time>2018-12-25T16:28:18.000Z</time>
      </trkpt>
      <trkpt lat="48.13872" lon="0.40827">
        <ele>124.6</ele>
        <time>2018-12-25T16:28:23.000Z</time>
      </trkpt>
      <trkpt lat="48.13868" lon="0.40813">
        <ele>122.1</ele>
        <time>2018-12-25T16:28:29.000Z</time>
      </trkpt>
      <trkpt lat="48.13872" lon="0.40799">
        <ele>123.8</ele>
        <time>2018-12-25T16:28:38.000Z</time>
      </trkpt>
      <trkpt lat="48.13877" lon="0.40787">
        <ele>124.6</ele>
        <time>2018-12-25T16:28:48.000Z</time>
      </trkpt>
      <trkpt lat="48.13883" lon="0.40775">
        <ele>122.3</ele>
        <time>2018-12-25T16:28:56.000Z</time>
      </trkpt>
      <trkpt lat="48.13883" lon="0.40761">
        <ele>124.1</ele>
        <time>2018-12-25T16:29:06.000Z</time>
      </trkpt>
      <trkpt lat="48.13884" lon="0.40746">
        <ele>122.2</ele>
        <time>2018-12-25T16:29:15.000Z</time>
      </trkpt>
      <trkpt lat="48.13891" lon="0.40736">
        <ele>124.4</ele>
        <time>2018-12-25T16:29:22.000Z</time>
      </trkpt>
      <trkpt lat="48.13899" lon="0.40727">
        <ele>126.9</ele>
        <time>2018-12-25T16:29:29.000Z</time>
      </trkpt>
      <trkpt lat="48.13907" lon="0.40719">
        <ele>127.9</ele>
        <time>2018-12-25T16:29:36.000Z</time>
      </trkpt>
      <trkpt lat="48.13911" lon="0.40706">
        <ele>119.8</ele>
        <time>2018-12-25T16:29:45.000Z</time>
      </trkpt>
      <trkpt lat="48.13916" lon="0.40694">
        <ele>114</ele>
        <time>2018-12-25T16:29:55.000Z</time>
      </trkpt>
      <trkpt lat="48.13924" lon="0.40684">
        <ele>110.8</ele>
        <time>2018-12-25T16:30:04.000Z</time>
      </trkpt>
      <trkpt lat="48.13932" lon="0.40675">
        <ele>108.8</ele>
        <time>2018-12-25T16:30:13.000Z</time>
      </trkpt>
      <trkpt lat="48.1394" lon="0.40667">
        <ele>107.5</ele>
        <time>2018-12-25T16:30:20.000Z</time>
      </trkpt>
      <trkpt lat="48.13945" lon="0.40654">
        <ele>105.2</ele>
        <time>2018-12-25T16:30:27.000Z</time>
      </trkpt>
      <trkpt lat="48.13946" lon="0.40641">
        <ele>101</ele>
        <time>2018-12-25T16:30:36.000Z</time>
      </trkpt>
      <trkpt lat="48.13943" lon="0.40626">
        <ele>95.1</ele>
        <time>2018-12-25T16:30:43.000Z</time>
      </trkpt>
      <trkpt lat="48.13939" lon="0.40613">
        <ele>92.5</ele>
        <time>2018-12-25T16:30:50.000Z</time>
      </trkpt>
      <trkpt lat="48.13937" lon="0.40599">
        <ele>92.3</ele>
        <time>2018-12-25T16:30:57.000Z</time>
      </trkpt>
      <trkpt lat="48.13935" lon="0.40584">
        <ele>92.5</ele>
        <time>2018-12-25T16:31:05.000Z</time>
      </trkpt>
      <trkpt lat="48.13942" lon="0.40574">
        <ele>90.1</ele>
        <time>2018-12-25T16:31:15.000Z</time>
      </trkpt>
    </trkseg>
  </trk>
</gpx>